<?xml version="1.0" encoding="UTF-8" standalone="no" ?>
<gpx xmlns="http://www.topografix.com/GPX/1/1" xmlns:xsi="http://www.w3.org/2001/XMLSchema-instance" xsi:schemaLocation="http://www.topografix.com/GPX/1/1 http://www.topografix.com/GPX/1/1/gpx.xsd" version="1.1" creator="VisuGPX - https://www.visugpx.com">
  <metadata>
    <name>2020-03-07-15-15-38 on AllTrails</name>
    <desc><![CDATA[sortie du club vtt du velo sport de mesanger,un peu de soleil mais beaucoup de vase sur ce circuit plutôt facile
]]></desc>
  </metadata>
  <trk>
    <name><![CDATA[2020-03-07-15-15-38 on AllTrails]]></name>
    <trkseg>
      <trkpt lat="47.52539" lon="-1.34778">
        <ele>35</ele>
        <time>2020-03-07T14:15:38Z</time>
      </trkpt>
      <trkpt lat="47.52542" lon="-1.34781">
        <ele>35</ele>
        <time>2020-03-07T14:17:18Z</time>
      </trkpt>
      <trkpt lat="47.52543" lon="-1.34787">
        <ele>35</ele>
        <time>2020-03-07T14:17:21Z</time>
      </trkpt>
      <trkpt lat="47.52545" lon="-1.34792">
        <ele>35</ele>
        <time>2020-03-07T14:17:23Z</time>
      </trkpt>
      <trkpt lat="47.52546" lon="-1.34805">
        <ele>35</ele>
        <time>2020-03-07T14:17:27Z</time>
      </trkpt>
      <trkpt lat="47.52548" lon="-1.34834">
        <ele>36</ele>
        <time>2020-03-07T14:17:33Z</time>
      </trkpt>
      <trkpt lat="47.5255" lon="-1.34875">
        <ele>36</ele>
        <time>2020-03-07T14:17:41Z</time>
      </trkpt>
      <trkpt lat="47.52555" lon="-1.349">
        <ele>37</ele>
        <time>2020-03-07T14:17:48Z</time>
      </trkpt>
      <trkpt lat="47.52559" lon="-1.34922">
        <ele>38</ele>
        <time>2020-03-07T14:17:54Z</time>
      </trkpt>
      <trkpt lat="47.52565" lon="-1.34948">
        <ele>39</ele>
        <time>2020-03-07T14:18:01Z</time>
      </trkpt>
      <trkpt lat="47.52574" lon="-1.34969">
        <ele>39</ele>
        <time>2020-03-07T14:18:07Z</time>
      </trkpt>
      <trkpt lat="47.52584" lon="-1.3498">
        <ele>38</ele>
        <time>2020-03-07T14:18:12Z</time>
      </trkpt>
      <trkpt lat="47.52598" lon="-1.34997">
        <ele>37</ele>
        <time>2020-03-07T14:18:18Z</time>
      </trkpt>
      <trkpt lat="47.52607" lon="-1.35009">
        <ele>37</ele>
        <time>2020-03-07T14:18:22Z</time>
      </trkpt>
      <trkpt lat="47.52614" lon="-1.35018">
        <ele>37</ele>
        <time>2020-03-07T14:18:25Z</time>
      </trkpt>
      <trkpt lat="47.5263" lon="-1.35041">
        <ele>37</ele>
        <time>2020-03-07T14:18:31Z</time>
      </trkpt>
      <trkpt lat="47.52643" lon="-1.35065">
        <ele>36</ele>
        <time>2020-03-07T14:18:38Z</time>
      </trkpt>
      <trkpt lat="47.52649" lon="-1.35078">
        <ele>36</ele>
        <time>2020-03-07T14:18:42Z</time>
      </trkpt>
      <trkpt lat="47.52654" lon="-1.35088">
        <ele>37</ele>
        <time>2020-03-07T14:18:45Z</time>
      </trkpt>
      <trkpt lat="47.52664" lon="-1.35108">
        <ele>37</ele>
        <time>2020-03-07T14:18:52Z</time>
      </trkpt>
      <trkpt lat="47.52676" lon="-1.35128">
        <ele>38</ele>
        <time>2020-03-07T14:18:58Z</time>
      </trkpt>
      <trkpt lat="47.52679" lon="-1.35134">
        <ele>38</ele>
        <time>2020-03-07T14:19:00Z</time>
      </trkpt>
      <trkpt lat="47.52693" lon="-1.35163">
        <ele>39</ele>
        <time>2020-03-07T14:19:09Z</time>
      </trkpt>
      <trkpt lat="47.527" lon="-1.35193">
        <ele>39</ele>
        <time>2020-03-07T14:19:17Z</time>
      </trkpt>
      <trkpt lat="47.52711" lon="-1.35227">
        <ele>38</ele>
        <time>2020-03-07T14:19:25Z</time>
      </trkpt>
      <trkpt lat="47.5272" lon="-1.35261">
        <ele>38</ele>
        <time>2020-03-07T14:19:33Z</time>
      </trkpt>
      <trkpt lat="47.52729" lon="-1.3529">
        <ele>38</ele>
        <time>2020-03-07T14:19:40Z</time>
      </trkpt>
      <trkpt lat="47.52736" lon="-1.35313">
        <ele>39</ele>
        <time>2020-03-07T14:19:46Z</time>
      </trkpt>
      <trkpt lat="47.52739" lon="-1.3534">
        <ele>39</ele>
        <time>2020-03-07T14:19:52Z</time>
      </trkpt>
      <trkpt lat="47.52742" lon="-1.35368">
        <ele>38</ele>
        <time>2020-03-07T14:20:00Z</time>
      </trkpt>
      <trkpt lat="47.52747" lon="-1.3539">
        <ele>37</ele>
        <time>2020-03-07T14:20:24Z</time>
      </trkpt>
      <trkpt lat="47.5275" lon="-1.35399">
        <ele>37</ele>
        <time>2020-03-07T14:20:28Z</time>
      </trkpt>
      <trkpt lat="47.52795" lon="-1.35458">
        <ele>38</ele>
        <time>2020-03-07T14:32:53Z</time>
      </trkpt>
      <trkpt lat="47.52798" lon="-1.35463">
        <ele>38</ele>
        <time>2020-03-07T14:32:55Z</time>
      </trkpt>
      <trkpt lat="47.52811" lon="-1.35481">
        <ele>40</ele>
        <time>2020-03-07T14:33:03Z</time>
      </trkpt>
      <trkpt lat="47.52824" lon="-1.35495">
        <ele>40</ele>
        <time>2020-03-07T14:33:09Z</time>
      </trkpt>
      <trkpt lat="47.52837" lon="-1.35506">
        <ele>40</ele>
        <time>2020-03-07T14:33:15Z</time>
      </trkpt>
      <trkpt lat="47.52845" lon="-1.35512">
        <ele>40</ele>
        <time>2020-03-07T14:33:21Z</time>
      </trkpt>
      <trkpt lat="47.52856" lon="-1.35521">
        <ele>39</ele>
        <time>2020-03-07T14:33:27Z</time>
      </trkpt>
      <trkpt lat="47.52872" lon="-1.35532">
        <ele>39</ele>
        <time>2020-03-07T14:33:34Z</time>
      </trkpt>
      <trkpt lat="47.52874" lon="-1.35534">
        <ele>39</ele>
        <time>2020-03-07T14:33:35Z</time>
      </trkpt>
      <trkpt lat="47.52886" lon="-1.35546">
        <ele>39</ele>
        <time>2020-03-07T14:33:42Z</time>
      </trkpt>
      <trkpt lat="47.52896" lon="-1.35553">
        <ele>39</ele>
        <time>2020-03-07T14:33:49Z</time>
      </trkpt>
      <trkpt lat="47.52904" lon="-1.3556">
        <ele>40</ele>
        <time>2020-03-07T14:33:54Z</time>
      </trkpt>
      <trkpt lat="47.52907" lon="-1.35562">
        <ele>40</ele>
        <time>2020-03-07T14:33:55Z</time>
      </trkpt>
      <trkpt lat="47.52914" lon="-1.35569">
        <ele>40</ele>
        <time>2020-03-07T14:33:58Z</time>
      </trkpt>
      <trkpt lat="47.5293" lon="-1.35586">
        <ele>43</ele>
        <time>2020-03-07T14:34:05Z</time>
      </trkpt>
      <trkpt lat="47.52934" lon="-1.35591">
        <ele>43</ele>
        <time>2020-03-07T14:34:07Z</time>
      </trkpt>
      <trkpt lat="47.52951" lon="-1.35608">
        <ele>45</ele>
        <time>2020-03-07T14:34:15Z</time>
      </trkpt>
      <trkpt lat="47.52962" lon="-1.3562">
        <ele>46</ele>
        <time>2020-03-07T14:34:22Z</time>
      </trkpt>
      <trkpt lat="47.52963" lon="-1.35622">
        <ele>46</ele>
        <time>2020-03-07T14:34:23Z</time>
      </trkpt>
      <trkpt lat="47.52973" lon="-1.35629">
        <ele>46</ele>
        <time>2020-03-07T14:34:29Z</time>
      </trkpt>
      <trkpt lat="47.52976" lon="-1.35632">
        <ele>46</ele>
        <time>2020-03-07T14:34:31Z</time>
      </trkpt>
      <trkpt lat="47.52986" lon="-1.35642">
        <ele>45</ele>
        <time>2020-03-07T14:34:37Z</time>
      </trkpt>
      <trkpt lat="47.53002" lon="-1.35658">
        <ele>44</ele>
        <time>2020-03-07T14:34:50Z</time>
      </trkpt>
      <trkpt lat="47.5302" lon="-1.35675">
        <ele>45</ele>
        <time>2020-03-07T14:34:58Z</time>
      </trkpt>
      <trkpt lat="47.53039" lon="-1.35693">
        <ele>45</ele>
        <time>2020-03-07T14:35:06Z</time>
      </trkpt>
      <trkpt lat="47.53059" lon="-1.35713">
        <ele>46</ele>
        <time>2020-03-07T14:35:14Z</time>
      </trkpt>
      <trkpt lat="47.53074" lon="-1.35727">
        <ele>47</ele>
        <time>2020-03-07T14:35:20Z</time>
      </trkpt>
      <trkpt lat="47.5309" lon="-1.35741">
        <ele>48</ele>
        <time>2020-03-07T14:35:28Z</time>
      </trkpt>
      <trkpt lat="47.53102" lon="-1.35753">
        <ele>49</ele>
        <time>2020-03-07T14:35:35Z</time>
      </trkpt>
      <trkpt lat="47.53112" lon="-1.35764">
        <ele>50</ele>
        <time>2020-03-07T14:35:40Z</time>
      </trkpt>
      <trkpt lat="47.53115" lon="-1.35768">
        <ele>51</ele>
        <time>2020-03-07T14:35:42Z</time>
      </trkpt>
      <trkpt lat="47.53127" lon="-1.35779">
        <ele>52</ele>
        <time>2020-03-07T14:35:51Z</time>
      </trkpt>
      <trkpt lat="47.53139" lon="-1.35791">
        <ele>54</ele>
        <time>2020-03-07T14:35:57Z</time>
      </trkpt>
      <trkpt lat="47.53144" lon="-1.35797">
        <ele>54</ele>
        <time>2020-03-07T14:36:00Z</time>
      </trkpt>
      <trkpt lat="47.53152" lon="-1.35807">
        <ele>54</ele>
        <time>2020-03-07T14:36:04Z</time>
      </trkpt>
      <trkpt lat="47.53163" lon="-1.35824">
        <ele>54</ele>
        <time>2020-03-07T14:36:11Z</time>
      </trkpt>
      <trkpt lat="47.53178" lon="-1.35843">
        <ele>54</ele>
        <time>2020-03-07T14:36:18Z</time>
      </trkpt>
      <trkpt lat="47.53181" lon="-1.35848">
        <ele>54</ele>
        <time>2020-03-07T14:36:20Z</time>
      </trkpt>
      <trkpt lat="47.53196" lon="-1.35868">
        <ele>54</ele>
        <time>2020-03-07T14:36:28Z</time>
      </trkpt>
      <trkpt lat="47.53201" lon="-1.35876">
        <ele>55</ele>
        <time>2020-03-07T14:36:31Z</time>
      </trkpt>
      <trkpt lat="47.5321" lon="-1.35888">
        <ele>56</ele>
        <time>2020-03-07T14:36:36Z</time>
      </trkpt>
      <trkpt lat="47.53217" lon="-1.35903">
        <ele>56</ele>
        <time>2020-03-07T14:36:42Z</time>
      </trkpt>
      <trkpt lat="47.53219" lon="-1.35905">
        <ele>56</ele>
        <time>2020-03-07T14:36:43Z</time>
      </trkpt>
      <trkpt lat="47.53224" lon="-1.35922">
        <ele>56</ele>
        <time>2020-03-07T14:36:50Z</time>
      </trkpt>
      <trkpt lat="47.53225" lon="-1.35927">
        <ele>56</ele>
        <time>2020-03-07T14:36:52Z</time>
      </trkpt>
      <trkpt lat="47.53231" lon="-1.35937">
        <ele>56</ele>
        <time>2020-03-07T14:36:56Z</time>
      </trkpt>
      <trkpt lat="47.53237" lon="-1.35944">
        <ele>56</ele>
        <time>2020-03-07T14:37:01Z</time>
      </trkpt>
      <trkpt lat="47.53246" lon="-1.35961">
        <ele>56</ele>
        <time>2020-03-07T14:37:09Z</time>
      </trkpt>
      <trkpt lat="47.53254" lon="-1.35982">
        <ele>56</ele>
        <time>2020-03-07T14:37:16Z</time>
      </trkpt>
      <trkpt lat="47.53261" lon="-1.36003">
        <ele>56</ele>
        <time>2020-03-07T14:37:22Z</time>
      </trkpt>
      <trkpt lat="47.53272" lon="-1.3603">
        <ele>56</ele>
        <time>2020-03-07T14:37:30Z</time>
      </trkpt>
      <trkpt lat="47.53281" lon="-1.36054">
        <ele>55</ele>
        <time>2020-03-07T14:37:37Z</time>
      </trkpt>
      <trkpt lat="47.53286" lon="-1.36073">
        <ele>55</ele>
        <time>2020-03-07T14:37:43Z</time>
      </trkpt>
      <trkpt lat="47.53292" lon="-1.36093">
        <ele>56</ele>
        <time>2020-03-07T14:37:49Z</time>
      </trkpt>
      <trkpt lat="47.53293" lon="-1.36096">
        <ele>56</ele>
        <time>2020-03-07T14:37:50Z</time>
      </trkpt>
      <trkpt lat="47.53296" lon="-1.36106">
        <ele>56</ele>
        <time>2020-03-07T14:37:53Z</time>
      </trkpt>
      <trkpt lat="47.53301" lon="-1.36122">
        <ele>56</ele>
        <time>2020-03-07T14:37:57Z</time>
      </trkpt>
      <trkpt lat="47.5331" lon="-1.36143">
        <ele>57</ele>
        <time>2020-03-07T14:38:03Z</time>
      </trkpt>
      <trkpt lat="47.53318" lon="-1.36164">
        <ele>57</ele>
        <time>2020-03-07T14:38:09Z</time>
      </trkpt>
      <trkpt lat="47.53333" lon="-1.36193">
        <ele>56</ele>
        <time>2020-03-07T14:38:16Z</time>
      </trkpt>
      <trkpt lat="47.53343" lon="-1.36215">
        <ele>55</ele>
        <time>2020-03-07T14:38:23Z</time>
      </trkpt>
      <trkpt lat="47.53354" lon="-1.36239">
        <ele>55</ele>
        <time>2020-03-07T14:38:30Z</time>
      </trkpt>
      <trkpt lat="47.53364" lon="-1.36259">
        <ele>55</ele>
        <time>2020-03-07T14:38:37Z</time>
      </trkpt>
      <trkpt lat="47.53375" lon="-1.36281">
        <ele>54</ele>
        <time>2020-03-07T14:38:43Z</time>
      </trkpt>
      <trkpt lat="47.5339" lon="-1.36312">
        <ele>54</ele>
        <time>2020-03-07T14:38:51Z</time>
      </trkpt>
      <trkpt lat="47.53397" lon="-1.36327">
        <ele>54</ele>
        <time>2020-03-07T14:38:56Z</time>
      </trkpt>
      <trkpt lat="47.53399" lon="-1.36331">
        <ele>54</ele>
        <time>2020-03-07T14:38:57Z</time>
      </trkpt>
      <trkpt lat="47.53408" lon="-1.36347">
        <ele>54</ele>
        <time>2020-03-07T14:39:03Z</time>
      </trkpt>
      <trkpt lat="47.53414" lon="-1.3636">
        <ele>53</ele>
        <time>2020-03-07T14:39:09Z</time>
      </trkpt>
      <trkpt lat="47.53424" lon="-1.36361">
        <ele>53</ele>
        <time>2020-03-07T14:39:53Z</time>
      </trkpt>
      <trkpt lat="47.53426" lon="-1.3636">
        <ele>54</ele>
        <time>2020-03-07T14:39:54Z</time>
      </trkpt>
      <trkpt lat="47.53436" lon="-1.3635">
        <ele>55</ele>
        <time>2020-03-07T14:39:59Z</time>
      </trkpt>
      <trkpt lat="47.53451" lon="-1.36336">
        <ele>56</ele>
        <time>2020-03-07T14:40:05Z</time>
      </trkpt>
      <trkpt lat="47.53476" lon="-1.36317">
        <ele>54</ele>
        <time>2020-03-07T14:40:14Z</time>
      </trkpt>
      <trkpt lat="47.53501" lon="-1.36297">
        <ele>53</ele>
        <time>2020-03-07T14:40:22Z</time>
      </trkpt>
      <trkpt lat="47.5353" lon="-1.36273">
        <ele>54</ele>
        <time>2020-03-07T14:40:30Z</time>
      </trkpt>
      <trkpt lat="47.53541" lon="-1.36264">
        <ele>54</ele>
        <time>2020-03-07T14:40:33Z</time>
      </trkpt>
      <trkpt lat="47.53561" lon="-1.36247">
        <ele>56</ele>
        <time>2020-03-07T14:40:39Z</time>
      </trkpt>
      <trkpt lat="47.53572" lon="-1.36237">
        <ele>57</ele>
        <time>2020-03-07T14:40:42Z</time>
      </trkpt>
      <trkpt lat="47.53581" lon="-1.36227">
        <ele>58</ele>
        <time>2020-03-07T14:40:45Z</time>
      </trkpt>
      <trkpt lat="47.53606" lon="-1.362">
        <ele>60</ele>
        <time>2020-03-07T14:40:52Z</time>
      </trkpt>
      <trkpt lat="47.53609" lon="-1.36196">
        <ele>60</ele>
        <time>2020-03-07T14:40:53Z</time>
      </trkpt>
      <trkpt lat="47.53635" lon="-1.36163">
        <ele>61</ele>
        <time>2020-03-07T14:41:01Z</time>
      </trkpt>
      <trkpt lat="47.53663" lon="-1.36125">
        <ele>59</ele>
        <time>2020-03-07T14:41:10Z</time>
      </trkpt>
      <trkpt lat="47.53675" lon="-1.36107">
        <ele>59</ele>
        <time>2020-03-07T14:41:14Z</time>
      </trkpt>
      <trkpt lat="47.53688" lon="-1.36088">
        <ele>59</ele>
        <time>2020-03-07T14:41:18Z</time>
      </trkpt>
      <trkpt lat="47.53719" lon="-1.36045">
        <ele>58</ele>
        <time>2020-03-07T14:41:28Z</time>
      </trkpt>
      <trkpt lat="47.53749" lon="-1.36006">
        <ele>57</ele>
        <time>2020-03-07T14:41:38Z</time>
      </trkpt>
      <trkpt lat="47.5377" lon="-1.35974">
        <ele>56</ele>
        <time>2020-03-07T14:41:45Z</time>
      </trkpt>
      <trkpt lat="47.53794" lon="-1.35942">
        <ele>55</ele>
        <time>2020-03-07T14:41:53Z</time>
      </trkpt>
      <trkpt lat="47.53828" lon="-1.359">
        <ele>54</ele>
        <time>2020-03-07T14:42:03Z</time>
      </trkpt>
      <trkpt lat="47.5387" lon="-1.35856">
        <ele>53</ele>
        <time>2020-03-07T14:42:14Z</time>
      </trkpt>
      <trkpt lat="47.53901" lon="-1.35822">
        <ele>53</ele>
        <time>2020-03-07T14:42:23Z</time>
      </trkpt>
      <trkpt lat="47.53927" lon="-1.35791">
        <ele>54</ele>
        <time>2020-03-07T14:42:31Z</time>
      </trkpt>
      <trkpt lat="47.53936" lon="-1.35783">
        <ele>55</ele>
        <time>2020-03-07T14:42:35Z</time>
      </trkpt>
      <trkpt lat="47.53939" lon="-1.35784">
        <ele>55</ele>
        <time>2020-03-07T14:42:36Z</time>
      </trkpt>
      <trkpt lat="47.53944" lon="-1.35798">
        <ele>55</ele>
        <time>2020-03-07T14:42:39Z</time>
      </trkpt>
      <trkpt lat="47.53945" lon="-1.35811">
        <ele>56</ele>
        <time>2020-03-07T14:42:41Z</time>
      </trkpt>
      <trkpt lat="47.53947" lon="-1.35834">
        <ele>56</ele>
        <time>2020-03-07T14:42:44Z</time>
      </trkpt>
      <trkpt lat="47.53954" lon="-1.35888">
        <ele>57</ele>
        <time>2020-03-07T14:42:51Z</time>
      </trkpt>
      <trkpt lat="47.53962" lon="-1.3597">
        <ele>54</ele>
        <time>2020-03-07T14:43:01Z</time>
      </trkpt>
      <trkpt lat="47.53964" lon="-1.35986">
        <ele>54</ele>
        <time>2020-03-07T14:43:03Z</time>
      </trkpt>
      <trkpt lat="47.53968" lon="-1.3603">
        <ele>55</ele>
        <time>2020-03-07T14:43:09Z</time>
      </trkpt>
      <trkpt lat="47.53974" lon="-1.36074">
        <ele>56</ele>
        <time>2020-03-07T14:43:15Z</time>
      </trkpt>
      <trkpt lat="47.53975" lon="-1.36082">
        <ele>56</ele>
        <time>2020-03-07T14:43:16Z</time>
      </trkpt>
      <trkpt lat="47.53977" lon="-1.36137">
        <ele>52</ele>
        <time>2020-03-07T14:43:23Z</time>
      </trkpt>
      <trkpt lat="47.53976" lon="-1.36144">
        <ele>51</ele>
        <time>2020-03-07T14:43:24Z</time>
      </trkpt>
      <trkpt lat="47.53967" lon="-1.36189">
        <ele>50</ele>
        <time>2020-03-07T14:43:31Z</time>
      </trkpt>
      <trkpt lat="47.53958" lon="-1.36226">
        <ele>49</ele>
        <time>2020-03-07T14:43:37Z</time>
      </trkpt>
      <trkpt lat="47.5395" lon="-1.36261">
        <ele>50</ele>
        <time>2020-03-07T14:43:42Z</time>
      </trkpt>
      <trkpt lat="47.53944" lon="-1.36303">
        <ele>50</ele>
        <time>2020-03-07T14:43:48Z</time>
      </trkpt>
      <trkpt lat="47.53942" lon="-1.36333">
        <ele>50</ele>
        <time>2020-03-07T14:43:52Z</time>
      </trkpt>
      <trkpt lat="47.53944" lon="-1.36348">
        <ele>50</ele>
        <time>2020-03-07T14:43:54Z</time>
      </trkpt>
      <trkpt lat="47.53959" lon="-1.36365">
        <ele>49</ele>
        <time>2020-03-07T14:43:58Z</time>
      </trkpt>
      <trkpt lat="47.53975" lon="-1.36369">
        <ele>49</ele>
        <time>2020-03-07T14:44:01Z</time>
      </trkpt>
      <trkpt lat="47.53986" lon="-1.3637">
        <ele>49</ele>
        <time>2020-03-07T14:44:03Z</time>
      </trkpt>
      <trkpt lat="47.54007" lon="-1.36372">
        <ele>48</ele>
        <time>2020-03-07T14:44:07Z</time>
      </trkpt>
      <trkpt lat="47.54022" lon="-1.36378">
        <ele>48</ele>
        <time>2020-03-07T14:44:10Z</time>
      </trkpt>
      <trkpt lat="47.54026" lon="-1.36382">
        <ele>48</ele>
        <time>2020-03-07T14:44:11Z</time>
      </trkpt>
      <trkpt lat="47.54033" lon="-1.364">
        <ele>47</ele>
        <time>2020-03-07T14:44:14Z</time>
      </trkpt>
      <trkpt lat="47.54034" lon="-1.36423">
        <ele>47</ele>
        <time>2020-03-07T14:44:17Z</time>
      </trkpt>
      <trkpt lat="47.54034" lon="-1.36431">
        <ele>47</ele>
        <time>2020-03-07T14:44:18Z</time>
      </trkpt>
      <trkpt lat="47.54033" lon="-1.36438">
        <ele>47</ele>
        <time>2020-03-07T14:44:19Z</time>
      </trkpt>
      <trkpt lat="47.54028" lon="-1.36498">
        <ele>46</ele>
        <time>2020-03-07T14:44:27Z</time>
      </trkpt>
      <trkpt lat="47.54028" lon="-1.36547">
        <ele>46</ele>
        <time>2020-03-07T14:44:34Z</time>
      </trkpt>
      <trkpt lat="47.54032" lon="-1.36568">
        <ele>45</ele>
        <time>2020-03-07T14:44:37Z</time>
      </trkpt>
      <trkpt lat="47.54038" lon="-1.3659">
        <ele>45</ele>
        <time>2020-03-07T14:44:40Z</time>
      </trkpt>
      <trkpt lat="47.54043" lon="-1.36605">
        <ele>45</ele>
        <time>2020-03-07T14:44:42Z</time>
      </trkpt>
      <trkpt lat="47.5406" lon="-1.36649">
        <ele>45</ele>
        <time>2020-03-07T14:44:48Z</time>
      </trkpt>
      <trkpt lat="47.54078" lon="-1.36695">
        <ele>45</ele>
        <time>2020-03-07T14:44:54Z</time>
      </trkpt>
      <trkpt lat="47.54081" lon="-1.36702">
        <ele>45</ele>
        <time>2020-03-07T14:44:55Z</time>
      </trkpt>
      <trkpt lat="47.54085" lon="-1.36709">
        <ele>44</ele>
        <time>2020-03-07T14:44:56Z</time>
      </trkpt>
      <trkpt lat="47.54108" lon="-1.36742">
        <ele>43</ele>
        <time>2020-03-07T14:45:01Z</time>
      </trkpt>
      <trkpt lat="47.54113" lon="-1.36748">
        <ele>43</ele>
        <time>2020-03-07T14:45:02Z</time>
      </trkpt>
      <trkpt lat="47.54135" lon="-1.36776">
        <ele>42</ele>
        <time>2020-03-07T14:45:07Z</time>
      </trkpt>
      <trkpt lat="47.54143" lon="-1.36786">
        <ele>42</ele>
        <time>2020-03-07T14:45:09Z</time>
      </trkpt>
      <trkpt lat="47.54165" lon="-1.36812">
        <ele>42</ele>
        <time>2020-03-07T14:45:15Z</time>
      </trkpt>
      <trkpt lat="47.54193" lon="-1.36831">
        <ele>41</ele>
        <time>2020-03-07T14:45:21Z</time>
      </trkpt>
      <trkpt lat="47.54231" lon="-1.36855">
        <ele>43</ele>
        <time>2020-03-07T14:45:29Z</time>
      </trkpt>
      <trkpt lat="47.54251" lon="-1.36876">
        <ele>44</ele>
        <time>2020-03-07T14:45:34Z</time>
      </trkpt>
      <trkpt lat="47.54266" lon="-1.36893">
        <ele>44</ele>
        <time>2020-03-07T14:45:38Z</time>
      </trkpt>
      <trkpt lat="47.54279" lon="-1.36911">
        <ele>44</ele>
        <time>2020-03-07T14:45:42Z</time>
      </trkpt>
      <trkpt lat="47.54296" lon="-1.36935">
        <ele>44</ele>
        <time>2020-03-07T14:45:47Z</time>
      </trkpt>
      <trkpt lat="47.54323" lon="-1.3697">
        <ele>44</ele>
        <time>2020-03-07T14:45:55Z</time>
      </trkpt>
      <trkpt lat="47.54355" lon="-1.36996">
        <ele>43</ele>
        <time>2020-03-07T14:46:03Z</time>
      </trkpt>
      <trkpt lat="47.54383" lon="-1.37013">
        <ele>43</ele>
        <time>2020-03-07T14:46:10Z</time>
      </trkpt>
      <trkpt lat="47.54413" lon="-1.37033">
        <ele>44</ele>
        <time>2020-03-07T14:46:18Z</time>
      </trkpt>
      <trkpt lat="47.54423" lon="-1.3704">
        <ele>44</ele>
        <time>2020-03-07T14:46:21Z</time>
      </trkpt>
      <trkpt lat="47.54439" lon="-1.3705">
        <ele>44</ele>
        <time>2020-03-07T14:46:26Z</time>
      </trkpt>
      <trkpt lat="47.54469" lon="-1.3707">
        <ele>45</ele>
        <time>2020-03-07T14:46:34Z</time>
      </trkpt>
      <trkpt lat="47.54501" lon="-1.371">
        <ele>44</ele>
        <time>2020-03-07T14:46:43Z</time>
      </trkpt>
      <trkpt lat="47.54506" lon="-1.37114">
        <ele>44</ele>
        <time>2020-03-07T14:46:46Z</time>
      </trkpt>
      <trkpt lat="47.54505" lon="-1.37119">
        <ele>44</ele>
        <time>2020-03-07T14:46:47Z</time>
      </trkpt>
      <trkpt lat="47.54495" lon="-1.37138">
        <ele>44</ele>
        <time>2020-03-07T14:46:51Z</time>
      </trkpt>
      <trkpt lat="47.54492" lon="-1.37142">
        <ele>44</ele>
        <time>2020-03-07T14:46:52Z</time>
      </trkpt>
      <trkpt lat="47.54467" lon="-1.37171">
        <ele>45</ele>
        <time>2020-03-07T14:47:00Z</time>
      </trkpt>
      <trkpt lat="47.54464" lon="-1.37175">
        <ele>45</ele>
        <time>2020-03-07T14:47:01Z</time>
      </trkpt>
      <trkpt lat="47.54455" lon="-1.37188">
        <ele>45</ele>
        <time>2020-03-07T14:47:04Z</time>
      </trkpt>
      <trkpt lat="47.54449" lon="-1.37195">
        <ele>45</ele>
        <time>2020-03-07T14:47:06Z</time>
      </trkpt>
      <trkpt lat="47.54429" lon="-1.37222">
        <ele>44</ele>
        <time>2020-03-07T14:47:13Z</time>
      </trkpt>
      <trkpt lat="47.54424" lon="-1.37229">
        <ele>44</ele>
        <time>2020-03-07T14:47:15Z</time>
      </trkpt>
      <trkpt lat="47.5442" lon="-1.37236">
        <ele>44</ele>
        <time>2020-03-07T14:47:28Z</time>
      </trkpt>
      <trkpt lat="47.54412" lon="-1.3725">
        <ele>43</ele>
        <time>2020-03-07T14:47:32Z</time>
      </trkpt>
      <trkpt lat="47.54404" lon="-1.37268">
        <ele>42</ele>
        <time>2020-03-07T14:47:36Z</time>
      </trkpt>
      <trkpt lat="47.54399" lon="-1.37278">
        <ele>41</ele>
        <time>2020-03-07T14:47:38Z</time>
      </trkpt>
      <trkpt lat="47.54388" lon="-1.373">
        <ele>40</ele>
        <time>2020-03-07T14:47:42Z</time>
      </trkpt>
      <trkpt lat="47.54386" lon="-1.37306">
        <ele>40</ele>
        <time>2020-03-07T14:47:43Z</time>
      </trkpt>
      <trkpt lat="47.5438" lon="-1.37324">
        <ele>40</ele>
        <time>2020-03-07T14:47:46Z</time>
      </trkpt>
      <trkpt lat="47.54379" lon="-1.3733">
        <ele>40</ele>
        <time>2020-03-07T14:47:47Z</time>
      </trkpt>
      <trkpt lat="47.54374" lon="-1.37351">
        <ele>39</ele>
        <time>2020-03-07T14:47:51Z</time>
      </trkpt>
      <trkpt lat="47.54367" lon="-1.37392">
        <ele>37</ele>
        <time>2020-03-07T14:47:57Z</time>
      </trkpt>
      <trkpt lat="47.54361" lon="-1.37411">
        <ele>37</ele>
        <time>2020-03-07T14:48:00Z</time>
      </trkpt>
      <trkpt lat="47.54355" lon="-1.37422">
        <ele>37</ele>
        <time>2020-03-07T14:48:02Z</time>
      </trkpt>
      <trkpt lat="47.54352" lon="-1.37427">
        <ele>37</ele>
        <time>2020-03-07T14:48:03Z</time>
      </trkpt>
      <trkpt lat="47.54332" lon="-1.37463">
        <ele>38</ele>
        <time>2020-03-07T14:48:10Z</time>
      </trkpt>
      <trkpt lat="47.54326" lon="-1.37473">
        <ele>38</ele>
        <time>2020-03-07T14:48:12Z</time>
      </trkpt>
      <trkpt lat="47.54296" lon="-1.37528">
        <ele>39</ele>
        <time>2020-03-07T14:48:24Z</time>
      </trkpt>
      <trkpt lat="47.54283" lon="-1.37556">
        <ele>40</ele>
        <time>2020-03-07T14:48:31Z</time>
      </trkpt>
      <trkpt lat="47.54281" lon="-1.3756">
        <ele>40</ele>
        <time>2020-03-07T14:48:32Z</time>
      </trkpt>
      <trkpt lat="47.5427" lon="-1.37579">
        <ele>40</ele>
        <time>2020-03-07T14:48:39Z</time>
      </trkpt>
      <trkpt lat="47.54258" lon="-1.376">
        <ele>40</ele>
        <time>2020-03-07T14:48:47Z</time>
      </trkpt>
      <trkpt lat="47.54242" lon="-1.3763">
        <ele>40</ele>
        <time>2020-03-07T14:48:57Z</time>
      </trkpt>
      <trkpt lat="47.54224" lon="-1.37664">
        <ele>40</ele>
        <time>2020-03-07T14:49:07Z</time>
      </trkpt>
      <trkpt lat="47.54205" lon="-1.37698">
        <ele>41</ele>
        <time>2020-03-07T14:49:17Z</time>
      </trkpt>
      <trkpt lat="47.54184" lon="-1.37738">
        <ele>42</ele>
        <time>2020-03-07T14:49:28Z</time>
      </trkpt>
      <trkpt lat="47.54163" lon="-1.37777">
        <ele>43</ele>
        <time>2020-03-07T14:49:39Z</time>
      </trkpt>
      <trkpt lat="47.54142" lon="-1.37818">
        <ele>42</ele>
        <time>2020-03-07T14:49:51Z</time>
      </trkpt>
      <trkpt lat="47.54138" lon="-1.37825">
        <ele>42</ele>
        <time>2020-03-07T14:49:53Z</time>
      </trkpt>
      <trkpt lat="47.54124" lon="-1.37851">
        <ele>42</ele>
        <time>2020-03-07T14:50:00Z</time>
      </trkpt>
      <trkpt lat="47.54111" lon="-1.37875">
        <ele>43</ele>
        <time>2020-03-07T14:50:07Z</time>
      </trkpt>
      <trkpt lat="47.54108" lon="-1.37879">
        <ele>43</ele>
        <time>2020-03-07T14:50:09Z</time>
      </trkpt>
      <trkpt lat="47.54099" lon="-1.37895">
        <ele>43</ele>
        <time>2020-03-07T14:50:38Z</time>
      </trkpt>
      <trkpt lat="47.54096" lon="-1.37901">
        <ele>43</ele>
        <time>2020-03-07T14:50:40Z</time>
      </trkpt>
      <trkpt lat="47.54084" lon="-1.37926">
        <ele>43</ele>
        <time>2020-03-07T14:50:46Z</time>
      </trkpt>
      <trkpt lat="47.5407" lon="-1.37958">
        <ele>44</ele>
        <time>2020-03-07T14:50:53Z</time>
      </trkpt>
      <trkpt lat="47.54055" lon="-1.37986">
        <ele>43</ele>
        <time>2020-03-07T14:51:00Z</time>
      </trkpt>
      <trkpt lat="47.54036" lon="-1.38025">
        <ele>43</ele>
        <time>2020-03-07T14:51:09Z</time>
      </trkpt>
      <trkpt lat="47.54029" lon="-1.38039">
        <ele>43</ele>
        <time>2020-03-07T14:51:12Z</time>
      </trkpt>
      <trkpt lat="47.54014" lon="-1.38068">
        <ele>44</ele>
        <time>2020-03-07T14:51:19Z</time>
      </trkpt>
      <trkpt lat="47.53995" lon="-1.38099">
        <ele>44</ele>
        <time>2020-03-07T14:51:27Z</time>
      </trkpt>
      <trkpt lat="47.53974" lon="-1.38133">
        <ele>44</ele>
        <time>2020-03-07T14:51:36Z</time>
      </trkpt>
      <trkpt lat="47.53961" lon="-1.38154">
        <ele>43</ele>
        <time>2020-03-07T14:51:43Z</time>
      </trkpt>
      <trkpt lat="47.53947" lon="-1.38174">
        <ele>43</ele>
        <time>2020-03-07T14:51:50Z</time>
      </trkpt>
      <trkpt lat="47.53928" lon="-1.38204">
        <ele>43</ele>
        <time>2020-03-07T14:51:59Z</time>
      </trkpt>
      <trkpt lat="47.53925" lon="-1.38207">
        <ele>43</ele>
        <time>2020-03-07T14:52:00Z</time>
      </trkpt>
      <trkpt lat="47.5391" lon="-1.38232">
        <ele>44</ele>
        <time>2020-03-07T14:52:07Z</time>
      </trkpt>
      <trkpt lat="47.53896" lon="-1.38267">
        <ele>45</ele>
        <time>2020-03-07T14:52:15Z</time>
      </trkpt>
      <trkpt lat="47.53891" lon="-1.38302">
        <ele>46</ele>
        <time>2020-03-07T14:52:22Z</time>
      </trkpt>
      <trkpt lat="47.53886" lon="-1.38331">
        <ele>47</ele>
        <time>2020-03-07T14:52:29Z</time>
      </trkpt>
      <trkpt lat="47.53885" lon="-1.38335">
        <ele>47</ele>
        <time>2020-03-07T14:52:30Z</time>
      </trkpt>
      <trkpt lat="47.53881" lon="-1.38368">
        <ele>47</ele>
        <time>2020-03-07T14:52:38Z</time>
      </trkpt>
      <trkpt lat="47.53877" lon="-1.38388">
        <ele>47</ele>
        <time>2020-03-07T14:52:43Z</time>
      </trkpt>
      <trkpt lat="47.53872" lon="-1.3841">
        <ele>48</ele>
        <time>2020-03-07T14:52:48Z</time>
      </trkpt>
      <trkpt lat="47.53869" lon="-1.38415">
        <ele>48</ele>
        <time>2020-03-07T14:52:50Z</time>
      </trkpt>
      <trkpt lat="47.5386" lon="-1.38425">
        <ele>48</ele>
        <time>2020-03-07T14:53:13Z</time>
      </trkpt>
      <trkpt lat="47.53854" lon="-1.38424">
        <ele>48</ele>
        <time>2020-03-07T14:53:16Z</time>
      </trkpt>
      <trkpt lat="47.53833" lon="-1.3842">
        <ele>49</ele>
        <time>2020-03-07T14:53:23Z</time>
      </trkpt>
      <trkpt lat="47.53806" lon="-1.38424">
        <ele>49</ele>
        <time>2020-03-07T14:53:31Z</time>
      </trkpt>
      <trkpt lat="47.5379" lon="-1.3843">
        <ele>49</ele>
        <time>2020-03-07T14:53:36Z</time>
      </trkpt>
      <trkpt lat="47.5378" lon="-1.38434">
        <ele>49</ele>
        <time>2020-03-07T14:53:39Z</time>
      </trkpt>
      <trkpt lat="47.53759" lon="-1.38443">
        <ele>50</ele>
        <time>2020-03-07T14:53:46Z</time>
      </trkpt>
      <trkpt lat="47.53736" lon="-1.3845">
        <ele>50</ele>
        <time>2020-03-07T14:53:54Z</time>
      </trkpt>
      <trkpt lat="47.53733" lon="-1.38447">
        <ele>50</ele>
        <time>2020-03-07T14:53:56Z</time>
      </trkpt>
      <trkpt lat="47.53731" lon="-1.38439">
        <ele>50</ele>
        <time>2020-03-07T14:53:58Z</time>
      </trkpt>
      <trkpt lat="47.53732" lon="-1.38427">
        <ele>49</ele>
        <time>2020-03-07T14:54:00Z</time>
      </trkpt>
      <trkpt lat="47.53731" lon="-1.38413">
        <ele>49</ele>
        <time>2020-03-07T14:54:02Z</time>
      </trkpt>
      <trkpt lat="47.53727" lon="-1.38359">
        <ele>48</ele>
        <time>2020-03-07T14:54:09Z</time>
      </trkpt>
      <trkpt lat="47.53727" lon="-1.38352">
        <ele>48</ele>
        <time>2020-03-07T14:54:10Z</time>
      </trkpt>
      <trkpt lat="47.53723" lon="-1.38306">
        <ele>47</ele>
        <time>2020-03-07T14:54:16Z</time>
      </trkpt>
      <trkpt lat="47.53721" lon="-1.38272">
        <ele>45</ele>
        <time>2020-03-07T14:54:20Z</time>
      </trkpt>
      <trkpt lat="47.53717" lon="-1.3823">
        <ele>44</ele>
        <time>2020-03-07T14:54:25Z</time>
      </trkpt>
      <trkpt lat="47.53713" lon="-1.38188">
        <ele>43</ele>
        <time>2020-03-07T14:54:30Z</time>
      </trkpt>
      <trkpt lat="47.53709" lon="-1.38139">
        <ele>43</ele>
        <time>2020-03-07T14:54:36Z</time>
      </trkpt>
      <trkpt lat="47.53708" lon="-1.38131">
        <ele>43</ele>
        <time>2020-03-07T14:54:37Z</time>
      </trkpt>
      <trkpt lat="47.53704" lon="-1.38084">
        <ele>43</ele>
        <time>2020-03-07T14:54:43Z</time>
      </trkpt>
      <trkpt lat="47.53703" lon="-1.38079">
        <ele>42</ele>
        <time>2020-03-07T14:54:44Z</time>
      </trkpt>
      <trkpt lat="47.537" lon="-1.38075">
        <ele>42</ele>
        <time>2020-03-07T14:54:45Z</time>
      </trkpt>
      <trkpt lat="47.53685" lon="-1.38078">
        <ele>42</ele>
        <time>2020-03-07T14:54:48Z</time>
      </trkpt>
      <trkpt lat="47.5368" lon="-1.3808">
        <ele>42</ele>
        <time>2020-03-07T14:54:49Z</time>
      </trkpt>
      <trkpt lat="47.53666" lon="-1.38086">
        <ele>42</ele>
        <time>2020-03-07T14:54:52Z</time>
      </trkpt>
      <trkpt lat="47.53652" lon="-1.38092">
        <ele>42</ele>
        <time>2020-03-07T14:54:55Z</time>
      </trkpt>
      <trkpt lat="47.5361" lon="-1.38105">
        <ele>41</ele>
        <time>2020-03-07T14:55:03Z</time>
      </trkpt>
      <trkpt lat="47.53566" lon="-1.38121">
        <ele>41</ele>
        <time>2020-03-07T14:55:12Z</time>
      </trkpt>
      <trkpt lat="47.53561" lon="-1.38122">
        <ele>41</ele>
        <time>2020-03-07T14:55:13Z</time>
      </trkpt>
      <trkpt lat="47.5353" lon="-1.38133">
        <ele>41</ele>
        <time>2020-03-07T14:55:20Z</time>
      </trkpt>
      <trkpt lat="47.53503" lon="-1.38141">
        <ele>42</ele>
        <time>2020-03-07T14:55:26Z</time>
      </trkpt>
      <trkpt lat="47.53485" lon="-1.38147">
        <ele>42</ele>
        <time>2020-03-07T14:55:30Z</time>
      </trkpt>
      <trkpt lat="47.5346" lon="-1.38153">
        <ele>41</ele>
        <time>2020-03-07T14:55:36Z</time>
      </trkpt>
      <trkpt lat="47.53428" lon="-1.38163">
        <ele>39</ele>
        <time>2020-03-07T14:55:43Z</time>
      </trkpt>
      <trkpt lat="47.53397" lon="-1.38169">
        <ele>38</ele>
        <time>2020-03-07T14:55:49Z</time>
      </trkpt>
      <trkpt lat="47.53391" lon="-1.3817">
        <ele>38</ele>
        <time>2020-03-07T14:55:50Z</time>
      </trkpt>
      <trkpt lat="47.53373" lon="-1.38175">
        <ele>38</ele>
        <time>2020-03-07T14:55:53Z</time>
      </trkpt>
      <trkpt lat="47.53354" lon="-1.38181">
        <ele>38</ele>
        <time>2020-03-07T14:55:56Z</time>
      </trkpt>
      <trkpt lat="47.53347" lon="-1.38183">
        <ele>38</ele>
        <time>2020-03-07T14:55:57Z</time>
      </trkpt>
      <trkpt lat="47.53318" lon="-1.38192">
        <ele>39</ele>
        <time>2020-03-07T14:56:02Z</time>
      </trkpt>
      <trkpt lat="47.53308" lon="-1.38194">
        <ele>39</ele>
        <time>2020-03-07T14:56:04Z</time>
      </trkpt>
      <trkpt lat="47.5326" lon="-1.38208">
        <ele>41</ele>
        <time>2020-03-07T14:56:14Z</time>
      </trkpt>
      <trkpt lat="47.53245" lon="-1.38213">
        <ele>42</ele>
        <time>2020-03-07T14:56:18Z</time>
      </trkpt>
      <trkpt lat="47.53238" lon="-1.38215">
        <ele>42</ele>
        <time>2020-03-07T14:56:20Z</time>
      </trkpt>
      <trkpt lat="47.53226" lon="-1.38221">
        <ele>42</ele>
        <time>2020-03-07T14:56:25Z</time>
      </trkpt>
      <trkpt lat="47.53222" lon="-1.3823">
        <ele>42</ele>
        <time>2020-03-07T14:56:28Z</time>
      </trkpt>
      <trkpt lat="47.53223" lon="-1.38238">
        <ele>42</ele>
        <time>2020-03-07T14:56:30Z</time>
      </trkpt>
      <trkpt lat="47.53224" lon="-1.38254">
        <ele>42</ele>
        <time>2020-03-07T14:56:33Z</time>
      </trkpt>
      <trkpt lat="47.53225" lon="-1.3826">
        <ele>42</ele>
        <time>2020-03-07T14:56:34Z</time>
      </trkpt>
      <trkpt lat="47.53226" lon="-1.38272">
        <ele>42</ele>
        <time>2020-03-07T14:56:36Z</time>
      </trkpt>
      <trkpt lat="47.53228" lon="-1.38314">
        <ele>42</ele>
        <time>2020-03-07T14:56:43Z</time>
      </trkpt>
      <trkpt lat="47.53228" lon="-1.3832">
        <ele>42</ele>
        <time>2020-03-07T14:56:44Z</time>
      </trkpt>
      <trkpt lat="47.5323" lon="-1.38351">
        <ele>42</ele>
        <time>2020-03-07T14:56:49Z</time>
      </trkpt>
      <trkpt lat="47.5323" lon="-1.38364">
        <ele>42</ele>
        <time>2020-03-07T14:56:51Z</time>
      </trkpt>
      <trkpt lat="47.5323" lon="-1.38382">
        <ele>43</ele>
        <time>2020-03-07T14:56:54Z</time>
      </trkpt>
      <trkpt lat="47.53229" lon="-1.38422">
        <ele>43</ele>
        <time>2020-03-07T14:57:00Z</time>
      </trkpt>
      <trkpt lat="47.53228" lon="-1.38479">
        <ele>45</ele>
        <time>2020-03-07T14:57:08Z</time>
      </trkpt>
      <trkpt lat="47.53227" lon="-1.38547">
        <ele>46</ele>
        <time>2020-03-07T14:57:18Z</time>
      </trkpt>
      <trkpt lat="47.5323" lon="-1.38602">
        <ele>45</ele>
        <time>2020-03-07T14:57:26Z</time>
      </trkpt>
      <trkpt lat="47.53229" lon="-1.38622">
        <ele>46</ele>
        <time>2020-03-07T14:57:31Z</time>
      </trkpt>
      <trkpt lat="47.53226" lon="-1.38626">
        <ele>46</ele>
        <time>2020-03-07T14:57:34Z</time>
      </trkpt>
      <trkpt lat="47.53222" lon="-1.38625">
        <ele>46</ele>
        <time>2020-03-07T14:57:36Z</time>
      </trkpt>
      <trkpt lat="47.53219" lon="-1.38623">
        <ele>46</ele>
        <time>2020-03-07T14:57:38Z</time>
      </trkpt>
      <trkpt lat="47.53229" lon="-1.38624">
        <ele>46</ele>
        <time>2020-03-07T14:58:03Z</time>
      </trkpt>
      <trkpt lat="47.53231" lon="-1.38626">
        <ele>46</ele>
        <time>2020-03-07T14:58:04Z</time>
      </trkpt>
      <trkpt lat="47.5325" lon="-1.38632">
        <ele>45</ele>
        <time>2020-03-07T14:58:09Z</time>
      </trkpt>
      <trkpt lat="47.53284" lon="-1.38633">
        <ele>45</ele>
        <time>2020-03-07T14:58:16Z</time>
      </trkpt>
      <trkpt lat="47.53288" lon="-1.38631">
        <ele>45</ele>
        <time>2020-03-07T14:58:17Z</time>
      </trkpt>
      <trkpt lat="47.53304" lon="-1.38627">
        <ele>45</ele>
        <time>2020-03-07T14:58:21Z</time>
      </trkpt>
      <trkpt lat="47.53309" lon="-1.38626">
        <ele>45</ele>
        <time>2020-03-07T14:58:22Z</time>
      </trkpt>
      <trkpt lat="47.53332" lon="-1.38615">
        <ele>45</ele>
        <time>2020-03-07T14:58:28Z</time>
      </trkpt>
      <trkpt lat="47.53336" lon="-1.38614">
        <ele>45</ele>
        <time>2020-03-07T14:58:31Z</time>
      </trkpt>
      <trkpt lat="47.53335" lon="-1.38615">
        <ele>45</ele>
        <time>2020-03-07T14:58:32Z</time>
      </trkpt>
      <trkpt lat="47.53332" lon="-1.38616">
        <ele>45</ele>
        <time>2020-03-07T14:58:34Z</time>
      </trkpt>
      <trkpt lat="47.53324" lon="-1.38619">
        <ele>45</ele>
        <time>2020-03-07T14:58:37Z</time>
      </trkpt>
      <trkpt lat="47.53306" lon="-1.38626">
        <ele>45</ele>
        <time>2020-03-07T14:58:42Z</time>
      </trkpt>
      <trkpt lat="47.5327" lon="-1.38631">
        <ele>45</ele>
        <time>2020-03-07T14:58:50Z</time>
      </trkpt>
      <trkpt lat="47.53234" lon="-1.38623">
        <ele>46</ele>
        <time>2020-03-07T14:58:58Z</time>
      </trkpt>
      <trkpt lat="47.53218" lon="-1.38618">
        <ele>46</ele>
        <time>2020-03-07T14:59:04Z</time>
      </trkpt>
      <trkpt lat="47.53213" lon="-1.38617">
        <ele>46</ele>
        <time>2020-03-07T14:59:08Z</time>
      </trkpt>
      <trkpt lat="47.5321" lon="-1.38616">
        <ele>46</ele>
        <time>2020-03-07T14:59:24Z</time>
      </trkpt>
      <trkpt lat="47.53199" lon="-1.38613">
        <ele>46</ele>
        <time>2020-03-07T14:59:28Z</time>
      </trkpt>
      <trkpt lat="47.53169" lon="-1.38601">
        <ele>46</ele>
        <time>2020-03-07T14:59:36Z</time>
      </trkpt>
      <trkpt lat="47.53165" lon="-1.386">
        <ele>47</ele>
        <time>2020-03-07T14:59:37Z</time>
      </trkpt>
      <trkpt lat="47.53136" lon="-1.38591">
        <ele>49</ele>
        <time>2020-03-07T14:59:44Z</time>
      </trkpt>
      <trkpt lat="47.53119" lon="-1.38585">
        <ele>50</ele>
        <time>2020-03-07T14:59:48Z</time>
      </trkpt>
      <trkpt lat="47.53102" lon="-1.38579">
        <ele>51</ele>
        <time>2020-03-07T14:59:52Z</time>
      </trkpt>
      <trkpt lat="47.53074" lon="-1.38568">
        <ele>50</ele>
        <time>2020-03-07T14:59:59Z</time>
      </trkpt>
      <trkpt lat="47.5307" lon="-1.38566">
        <ele>50</ele>
        <time>2020-03-07T15:00:00Z</time>
      </trkpt>
      <trkpt lat="47.53038" lon="-1.38556">
        <ele>51</ele>
        <time>2020-03-07T15:00:08Z</time>
      </trkpt>
      <trkpt lat="47.53031" lon="-1.38553">
        <ele>51</ele>
        <time>2020-03-07T15:00:10Z</time>
      </trkpt>
      <trkpt lat="47.53013" lon="-1.38547">
        <ele>53</ele>
        <time>2020-03-07T15:00:15Z</time>
      </trkpt>
      <trkpt lat="47.52998" lon="-1.38541">
        <ele>55</ele>
        <time>2020-03-07T15:00:20Z</time>
      </trkpt>
      <trkpt lat="47.52993" lon="-1.38539">
        <ele>56</ele>
        <time>2020-03-07T15:00:23Z</time>
      </trkpt>
      <trkpt lat="47.5299" lon="-1.38543">
        <ele>56</ele>
        <time>2020-03-07T15:01:04Z</time>
      </trkpt>
      <trkpt lat="47.52992" lon="-1.38552">
        <ele>57</ele>
        <time>2020-03-07T15:01:07Z</time>
      </trkpt>
      <trkpt lat="47.52993" lon="-1.38582">
        <ele>58</ele>
        <time>2020-03-07T15:01:16Z</time>
      </trkpt>
      <trkpt lat="47.52993" lon="-1.38596">
        <ele>57</ele>
        <time>2020-03-07T15:01:20Z</time>
      </trkpt>
      <trkpt lat="47.52989" lon="-1.386">
        <ele>58</ele>
        <time>2020-03-07T15:01:22Z</time>
      </trkpt>
      <trkpt lat="47.52983" lon="-1.38604">
        <ele>59</ele>
        <time>2020-03-07T15:01:24Z</time>
      </trkpt>
      <trkpt lat="47.52979" lon="-1.38606">
        <ele>60</ele>
        <time>2020-03-07T15:01:25Z</time>
      </trkpt>
      <trkpt lat="47.5297" lon="-1.3861">
        <ele>62</ele>
        <time>2020-03-07T15:01:28Z</time>
      </trkpt>
      <trkpt lat="47.52951" lon="-1.38623">
        <ele>61</ele>
        <time>2020-03-07T15:01:35Z</time>
      </trkpt>
      <trkpt lat="47.52931" lon="-1.38637">
        <ele>59</ele>
        <time>2020-03-07T15:01:42Z</time>
      </trkpt>
      <trkpt lat="47.5291" lon="-1.38654">
        <ele>58</ele>
        <time>2020-03-07T15:01:48Z</time>
      </trkpt>
      <trkpt lat="47.52906" lon="-1.38657">
        <ele>58</ele>
        <time>2020-03-07T15:01:49Z</time>
      </trkpt>
      <trkpt lat="47.52887" lon="-1.38682">
        <ele>56</ele>
        <time>2020-03-07T15:01:55Z</time>
      </trkpt>
      <trkpt lat="47.52884" lon="-1.38686">
        <ele>56</ele>
        <time>2020-03-07T15:01:56Z</time>
      </trkpt>
      <trkpt lat="47.52874" lon="-1.38701">
        <ele>56</ele>
        <time>2020-03-07T15:01:59Z</time>
      </trkpt>
      <trkpt lat="47.52866" lon="-1.38715">
        <ele>56</ele>
        <time>2020-03-07T15:02:02Z</time>
      </trkpt>
      <trkpt lat="47.52864" lon="-1.38719">
        <ele>56</ele>
        <time>2020-03-07T15:02:03Z</time>
      </trkpt>
      <trkpt lat="47.52863" lon="-1.38724">
        <ele>56</ele>
        <time>2020-03-07T15:02:04Z</time>
      </trkpt>
      <trkpt lat="47.52864" lon="-1.38733">
        <ele>56</ele>
        <time>2020-03-07T15:02:06Z</time>
      </trkpt>
      <trkpt lat="47.52862" lon="-1.38737">
        <ele>56</ele>
        <time>2020-03-07T15:05:00Z</time>
      </trkpt>
      <trkpt lat="47.52861" lon="-1.38736">
        <ele>57</ele>
        <time>2020-03-07T15:05:01Z</time>
      </trkpt>
      <trkpt lat="47.52848" lon="-1.38722">
        <ele>57</ele>
        <time>2020-03-07T15:05:09Z</time>
      </trkpt>
      <trkpt lat="47.52834" lon="-1.38704">
        <ele>56</ele>
        <time>2020-03-07T15:05:15Z</time>
      </trkpt>
      <trkpt lat="47.52813" lon="-1.38686">
        <ele>54</ele>
        <time>2020-03-07T15:05:22Z</time>
      </trkpt>
      <trkpt lat="47.52808" lon="-1.38683">
        <ele>54</ele>
        <time>2020-03-07T15:05:24Z</time>
      </trkpt>
      <trkpt lat="47.52801" lon="-1.38674">
        <ele>53</ele>
        <time>2020-03-07T15:05:27Z</time>
      </trkpt>
      <trkpt lat="47.52797" lon="-1.38667">
        <ele>53</ele>
        <time>2020-03-07T15:05:29Z</time>
      </trkpt>
      <trkpt lat="47.52795" lon="-1.38657">
        <ele>53</ele>
        <time>2020-03-07T15:05:32Z</time>
      </trkpt>
      <trkpt lat="47.52793" lon="-1.38651">
        <ele>53</ele>
        <time>2020-03-07T15:05:34Z</time>
      </trkpt>
      <trkpt lat="47.52788" lon="-1.38636">
        <ele>54</ele>
        <time>2020-03-07T15:05:40Z</time>
      </trkpt>
      <trkpt lat="47.52785" lon="-1.38619">
        <ele>54</ele>
        <time>2020-03-07T15:05:45Z</time>
      </trkpt>
      <trkpt lat="47.52784" lon="-1.38611">
        <ele>53</ele>
        <time>2020-03-07T15:05:47Z</time>
      </trkpt>
      <trkpt lat="47.52783" lon="-1.38579">
        <ele>52</ele>
        <time>2020-03-07T15:05:54Z</time>
      </trkpt>
      <trkpt lat="47.52781" lon="-1.38566">
        <ele>51</ele>
        <time>2020-03-07T15:05:58Z</time>
      </trkpt>
      <trkpt lat="47.5278" lon="-1.3856">
        <ele>51</ele>
        <time>2020-03-07T15:06:00Z</time>
      </trkpt>
      <trkpt lat="47.52776" lon="-1.38535">
        <ele>50</ele>
        <time>2020-03-07T15:06:07Z</time>
      </trkpt>
      <trkpt lat="47.52771" lon="-1.38508">
        <ele>47</ele>
        <time>2020-03-07T15:06:22Z</time>
      </trkpt>
      <trkpt lat="47.5277" lon="-1.38504">
        <ele>47</ele>
        <time>2020-03-07T15:06:23Z</time>
      </trkpt>
      <trkpt lat="47.52766" lon="-1.38481">
        <ele>45</ele>
        <time>2020-03-07T15:06:29Z</time>
      </trkpt>
      <trkpt lat="47.52765" lon="-1.38472">
        <ele>45</ele>
        <time>2020-03-07T15:06:31Z</time>
      </trkpt>
      <trkpt lat="47.52762" lon="-1.38446">
        <ele>45</ele>
        <time>2020-03-07T15:06:36Z</time>
      </trkpt>
      <trkpt lat="47.52765" lon="-1.3842">
        <ele>46</ele>
        <time>2020-03-07T15:06:42Z</time>
      </trkpt>
      <trkpt lat="47.52774" lon="-1.38396">
        <ele>46</ele>
        <time>2020-03-07T15:06:49Z</time>
      </trkpt>
      <trkpt lat="47.52775" lon="-1.38368">
        <ele>44</ele>
        <time>2020-03-07T15:07:18Z</time>
      </trkpt>
      <trkpt lat="47.52773" lon="-1.38365">
        <ele>44</ele>
        <time>2020-03-07T15:07:19Z</time>
      </trkpt>
      <trkpt lat="47.52762" lon="-1.38347">
        <ele>41</ele>
        <time>2020-03-07T15:07:23Z</time>
      </trkpt>
      <trkpt lat="47.52741" lon="-1.38313">
        <ele>37</ele>
        <time>2020-03-07T15:07:29Z</time>
      </trkpt>
      <trkpt lat="47.52733" lon="-1.38301">
        <ele>36</ele>
        <time>2020-03-07T15:07:31Z</time>
      </trkpt>
      <trkpt lat="47.52724" lon="-1.38289">
        <ele>36</ele>
        <time>2020-03-07T15:07:33Z</time>
      </trkpt>
      <trkpt lat="47.52707" lon="-1.3827">
        <ele>35</ele>
        <time>2020-03-07T15:07:36Z</time>
      </trkpt>
      <trkpt lat="47.52701" lon="-1.38265">
        <ele>34</ele>
        <time>2020-03-07T15:07:37Z</time>
      </trkpt>
      <trkpt lat="47.52695" lon="-1.3826">
        <ele>34</ele>
        <time>2020-03-07T15:07:38Z</time>
      </trkpt>
      <trkpt lat="47.52687" lon="-1.38256">
        <ele>34</ele>
        <time>2020-03-07T15:07:39Z</time>
      </trkpt>
      <trkpt lat="47.5268" lon="-1.38253">
        <ele>34</ele>
        <time>2020-03-07T15:07:40Z</time>
      </trkpt>
      <trkpt lat="47.52673" lon="-1.3825">
        <ele>34</ele>
        <time>2020-03-07T15:07:41Z</time>
      </trkpt>
      <trkpt lat="47.5266" lon="-1.38247">
        <ele>34</ele>
        <time>2020-03-07T15:07:43Z</time>
      </trkpt>
      <trkpt lat="47.52648" lon="-1.38244">
        <ele>34</ele>
        <time>2020-03-07T15:07:45Z</time>
      </trkpt>
      <trkpt lat="47.52642" lon="-1.38242">
        <ele>34</ele>
        <time>2020-03-07T15:07:46Z</time>
      </trkpt>
      <trkpt lat="47.52613" lon="-1.38224">
        <ele>35</ele>
        <time>2020-03-07T15:07:52Z</time>
      </trkpt>
      <trkpt lat="47.52604" lon="-1.38215">
        <ele>36</ele>
        <time>2020-03-07T15:07:54Z</time>
      </trkpt>
      <trkpt lat="47.52582" lon="-1.38192">
        <ele>37</ele>
        <time>2020-03-07T15:07:59Z</time>
      </trkpt>
      <trkpt lat="47.52565" lon="-1.38177">
        <ele>38</ele>
        <time>2020-03-07T15:08:03Z</time>
      </trkpt>
      <trkpt lat="47.52561" lon="-1.38175">
        <ele>38</ele>
        <time>2020-03-07T15:08:04Z</time>
      </trkpt>
      <trkpt lat="47.52556" lon="-1.38174">
        <ele>38</ele>
        <time>2020-03-07T15:08:05Z</time>
      </trkpt>
      <trkpt lat="47.52552" lon="-1.38174">
        <ele>38</ele>
        <time>2020-03-07T15:08:06Z</time>
      </trkpt>
      <trkpt lat="47.52525" lon="-1.3818">
        <ele>38</ele>
        <time>2020-03-07T15:08:11Z</time>
      </trkpt>
      <trkpt lat="47.52484" lon="-1.38194">
        <ele>40</ele>
        <time>2020-03-07T15:08:18Z</time>
      </trkpt>
      <trkpt lat="47.52467" lon="-1.38196">
        <ele>41</ele>
        <time>2020-03-07T15:08:21Z</time>
      </trkpt>
      <trkpt lat="47.52453" lon="-1.38199">
        <ele>41</ele>
        <time>2020-03-07T15:08:24Z</time>
      </trkpt>
      <trkpt lat="47.52431" lon="-1.38203">
        <ele>42</ele>
        <time>2020-03-07T15:08:30Z</time>
      </trkpt>
      <trkpt lat="47.52428" lon="-1.38199">
        <ele>42</ele>
        <time>2020-03-07T15:09:10Z</time>
      </trkpt>
      <trkpt lat="47.52427" lon="-1.38198">
        <ele>42</ele>
        <time>2020-03-07T15:09:11Z</time>
      </trkpt>
      <trkpt lat="47.52429" lon="-1.38164">
        <ele>42</ele>
        <time>2020-03-07T15:09:33Z</time>
      </trkpt>
      <trkpt lat="47.52429" lon="-1.38161">
        <ele>42</ele>
        <time>2020-03-07T15:09:34Z</time>
      </trkpt>
      <trkpt lat="47.52429" lon="-1.38135">
        <ele>42</ele>
        <time>2020-03-07T15:09:41Z</time>
      </trkpt>
      <trkpt lat="47.52429" lon="-1.38104">
        <ele>42</ele>
        <time>2020-03-07T15:09:48Z</time>
      </trkpt>
      <trkpt lat="47.52429" lon="-1.38074">
        <ele>41</ele>
        <time>2020-03-07T15:09:55Z</time>
      </trkpt>
      <trkpt lat="47.52428" lon="-1.38049">
        <ele>41</ele>
        <time>2020-03-07T15:10:02Z</time>
      </trkpt>
      <trkpt lat="47.52428" lon="-1.38022">
        <ele>42</ele>
        <time>2020-03-07T15:10:10Z</time>
      </trkpt>
      <trkpt lat="47.52429" lon="-1.37999">
        <ele>42</ele>
        <time>2020-03-07T15:10:18Z</time>
      </trkpt>
      <trkpt lat="47.52431" lon="-1.37973">
        <ele>42</ele>
        <time>2020-03-07T15:10:27Z</time>
      </trkpt>
      <trkpt lat="47.52431" lon="-1.37964">
        <ele>43</ele>
        <time>2020-03-07T15:10:30Z</time>
      </trkpt>
      <trkpt lat="47.52427" lon="-1.37874">
        <ele>43</ele>
        <time>2020-03-07T15:11:05Z</time>
      </trkpt>
      <trkpt lat="47.52427" lon="-1.37868">
        <ele>43</ele>
        <time>2020-03-07T15:11:07Z</time>
      </trkpt>
      <trkpt lat="47.52426" lon="-1.37839">
        <ele>43</ele>
        <time>2020-03-07T15:11:15Z</time>
      </trkpt>
      <trkpt lat="47.52425" lon="-1.37815">
        <ele>44</ele>
        <time>2020-03-07T15:11:22Z</time>
      </trkpt>
      <trkpt lat="47.52425" lon="-1.37803">
        <ele>45</ele>
        <time>2020-03-07T15:11:26Z</time>
      </trkpt>
      <trkpt lat="47.52426" lon="-1.37794">
        <ele>45</ele>
        <time>2020-03-07T15:11:29Z</time>
      </trkpt>
      <trkpt lat="47.52422" lon="-1.3777">
        <ele>46</ele>
        <time>2020-03-07T15:11:37Z</time>
      </trkpt>
      <trkpt lat="47.52419" lon="-1.37735">
        <ele>47</ele>
        <time>2020-03-07T15:14:41Z</time>
      </trkpt>
      <trkpt lat="47.52419" lon="-1.3772">
        <ele>47</ele>
        <time>2020-03-07T15:14:43Z</time>
      </trkpt>
      <trkpt lat="47.5242" lon="-1.37697">
        <ele>47</ele>
        <time>2020-03-07T15:14:48Z</time>
      </trkpt>
      <trkpt lat="47.5242" lon="-1.37683">
        <ele>46</ele>
        <time>2020-03-07T15:14:51Z</time>
      </trkpt>
      <trkpt lat="47.52422" lon="-1.37659">
        <ele>45</ele>
        <time>2020-03-07T15:14:59Z</time>
      </trkpt>
      <trkpt lat="47.52423" lon="-1.37652">
        <ele>45</ele>
        <time>2020-03-07T15:15:01Z</time>
      </trkpt>
      <trkpt lat="47.52423" lon="-1.37631">
        <ele>44</ele>
        <time>2020-03-07T15:15:06Z</time>
      </trkpt>
      <trkpt lat="47.52427" lon="-1.376">
        <ele>44</ele>
        <time>2020-03-07T15:15:14Z</time>
      </trkpt>
      <trkpt lat="47.52426" lon="-1.37592">
        <ele>44</ele>
        <time>2020-03-07T15:15:16Z</time>
      </trkpt>
      <trkpt lat="47.52425" lon="-1.37588">
        <ele>44</ele>
        <time>2020-03-07T15:15:17Z</time>
      </trkpt>
      <trkpt lat="47.52422" lon="-1.37583">
        <ele>44</ele>
        <time>2020-03-07T15:15:19Z</time>
      </trkpt>
      <trkpt lat="47.52416" lon="-1.37574">
        <ele>43</ele>
        <time>2020-03-07T15:15:25Z</time>
      </trkpt>
      <trkpt lat="47.52415" lon="-1.37571">
        <ele>43</ele>
        <time>2020-03-07T15:15:26Z</time>
      </trkpt>
      <trkpt lat="47.52415" lon="-1.37567">
        <ele>43</ele>
        <time>2020-03-07T15:15:28Z</time>
      </trkpt>
      <trkpt lat="47.52416" lon="-1.37563">
        <ele>43</ele>
        <time>2020-03-07T15:15:30Z</time>
      </trkpt>
      <trkpt lat="47.52419" lon="-1.37543">
        <ele>44</ele>
        <time>2020-03-07T15:15:38Z</time>
      </trkpt>
      <trkpt lat="47.52419" lon="-1.37535">
        <ele>44</ele>
        <time>2020-03-07T15:15:41Z</time>
      </trkpt>
      <trkpt lat="47.52414" lon="-1.37522">
        <ele>43</ele>
        <time>2020-03-07T15:15:45Z</time>
      </trkpt>
      <trkpt lat="47.52413" lon="-1.37519">
        <ele>43</ele>
        <time>2020-03-07T15:15:46Z</time>
      </trkpt>
      <trkpt lat="47.5241" lon="-1.37498">
        <ele>43</ele>
        <time>2020-03-07T15:16:00Z</time>
      </trkpt>
      <trkpt lat="47.52411" lon="-1.37493">
        <ele>43</ele>
        <time>2020-03-07T15:16:02Z</time>
      </trkpt>
      <trkpt lat="47.52411" lon="-1.37482">
        <ele>43</ele>
        <time>2020-03-07T15:16:05Z</time>
      </trkpt>
      <trkpt lat="47.52412" lon="-1.37466">
        <ele>43</ele>
        <time>2020-03-07T15:16:09Z</time>
      </trkpt>
      <trkpt lat="47.52408" lon="-1.3744">
        <ele>43</ele>
        <time>2020-03-07T15:16:16Z</time>
      </trkpt>
      <trkpt lat="47.524" lon="-1.37425">
        <ele>43</ele>
        <time>2020-03-07T15:16:22Z</time>
      </trkpt>
      <trkpt lat="47.52385" lon="-1.37412">
        <ele>42</ele>
        <time>2020-03-07T15:16:28Z</time>
      </trkpt>
      <trkpt lat="47.52376" lon="-1.37407">
        <ele>42</ele>
        <time>2020-03-07T15:16:31Z</time>
      </trkpt>
      <trkpt lat="47.52367" lon="-1.37401">
        <ele>42</ele>
        <time>2020-03-07T15:16:34Z</time>
      </trkpt>
      <trkpt lat="47.52347" lon="-1.3739">
        <ele>41</ele>
        <time>2020-03-07T15:16:41Z</time>
      </trkpt>
      <trkpt lat="47.52334" lon="-1.37384">
        <ele>40</ele>
        <time>2020-03-07T15:16:46Z</time>
      </trkpt>
      <trkpt lat="47.52326" lon="-1.3738">
        <ele>39</ele>
        <time>2020-03-07T15:16:49Z</time>
      </trkpt>
      <trkpt lat="47.52307" lon="-1.37371">
        <ele>39</ele>
        <time>2020-03-07T15:16:56Z</time>
      </trkpt>
      <trkpt lat="47.52305" lon="-1.3737">
        <ele>38</ele>
        <time>2020-03-07T15:16:57Z</time>
      </trkpt>
      <trkpt lat="47.52292" lon="-1.37364">
        <ele>38</ele>
        <time>2020-03-07T15:17:03Z</time>
      </trkpt>
      <trkpt lat="47.52277" lon="-1.37357">
        <ele>37</ele>
        <time>2020-03-07T15:17:09Z</time>
      </trkpt>
      <trkpt lat="47.52271" lon="-1.37354">
        <ele>37</ele>
        <time>2020-03-07T15:17:12Z</time>
      </trkpt>
      <trkpt lat="47.52262" lon="-1.3735">
        <ele>37</ele>
        <time>2020-03-07T15:17:15Z</time>
      </trkpt>
      <trkpt lat="47.52247" lon="-1.37346">
        <ele>37</ele>
        <time>2020-03-07T15:17:21Z</time>
      </trkpt>
      <trkpt lat="47.52229" lon="-1.37336">
        <ele>37</ele>
        <time>2020-03-07T15:17:30Z</time>
      </trkpt>
      <trkpt lat="47.5222" lon="-1.37333">
        <ele>37</ele>
        <time>2020-03-07T15:17:34Z</time>
      </trkpt>
      <trkpt lat="47.52217" lon="-1.37332">
        <ele>37</ele>
        <time>2020-03-07T15:17:36Z</time>
      </trkpt>
      <trkpt lat="47.52206" lon="-1.37328">
        <ele>37</ele>
        <time>2020-03-07T15:17:43Z</time>
      </trkpt>
      <trkpt lat="47.52202" lon="-1.37326">
        <ele>37</ele>
        <time>2020-03-07T15:17:45Z</time>
      </trkpt>
      <trkpt lat="47.52189" lon="-1.3732">
        <ele>37</ele>
        <time>2020-03-07T15:17:52Z</time>
      </trkpt>
      <trkpt lat="47.52175" lon="-1.37314">
        <ele>37</ele>
        <time>2020-03-07T15:17:57Z</time>
      </trkpt>
      <trkpt lat="47.52172" lon="-1.37313">
        <ele>37</ele>
        <time>2020-03-07T15:17:58Z</time>
      </trkpt>
      <trkpt lat="47.52149" lon="-1.37303">
        <ele>36</ele>
        <time>2020-03-07T15:18:05Z</time>
      </trkpt>
      <trkpt lat="47.52132" lon="-1.37292">
        <ele>35</ele>
        <time>2020-03-07T15:18:12Z</time>
      </trkpt>
      <trkpt lat="47.52116" lon="-1.37285">
        <ele>34</ele>
        <time>2020-03-07T15:18:18Z</time>
      </trkpt>
      <trkpt lat="47.52109" lon="-1.37275">
        <ele>34</ele>
        <time>2020-03-07T15:18:23Z</time>
      </trkpt>
      <trkpt lat="47.52108" lon="-1.37273">
        <ele>34</ele>
        <time>2020-03-07T15:18:24Z</time>
      </trkpt>
      <trkpt lat="47.52101" lon="-1.37268">
        <ele>34</ele>
        <time>2020-03-07T15:19:17Z</time>
      </trkpt>
      <trkpt lat="47.52101" lon="-1.37271">
        <ele>34</ele>
        <time>2020-03-07T15:19:18Z</time>
      </trkpt>
      <trkpt lat="47.52096" lon="-1.37293">
        <ele>34</ele>
        <time>2020-03-07T15:19:24Z</time>
      </trkpt>
      <trkpt lat="47.5208" lon="-1.37325">
        <ele>33</ele>
        <time>2020-03-07T15:19:32Z</time>
      </trkpt>
      <trkpt lat="47.52067" lon="-1.37356">
        <ele>32</ele>
        <time>2020-03-07T15:19:40Z</time>
      </trkpt>
      <trkpt lat="47.52056" lon="-1.37381">
        <ele>33</ele>
        <time>2020-03-07T15:19:46Z</time>
      </trkpt>
      <trkpt lat="47.52051" lon="-1.37393">
        <ele>32</ele>
        <time>2020-03-07T15:19:49Z</time>
      </trkpt>
      <trkpt lat="47.52034" lon="-1.37431">
        <ele>33</ele>
        <time>2020-03-07T15:19:58Z</time>
      </trkpt>
      <trkpt lat="47.52017" lon="-1.37469">
        <ele>33</ele>
        <time>2020-03-07T15:20:07Z</time>
      </trkpt>
      <trkpt lat="47.51994" lon="-1.37519">
        <ele>33</ele>
        <time>2020-03-07T15:20:18Z</time>
      </trkpt>
      <trkpt lat="47.51993" lon="-1.37523">
        <ele>33</ele>
        <time>2020-03-07T15:20:19Z</time>
      </trkpt>
      <trkpt lat="47.51983" lon="-1.37543">
        <ele>33</ele>
        <time>2020-03-07T15:20:25Z</time>
      </trkpt>
      <trkpt lat="47.51972" lon="-1.37569">
        <ele>34</ele>
        <time>2020-03-07T15:20:33Z</time>
      </trkpt>
      <trkpt lat="47.51962" lon="-1.37579">
        <ele>34</ele>
        <time>2020-03-07T15:20:39Z</time>
      </trkpt>
      <trkpt lat="47.51952" lon="-1.37576">
        <ele>33</ele>
        <time>2020-03-07T15:20:44Z</time>
      </trkpt>
      <trkpt lat="47.51941" lon="-1.37574">
        <ele>33</ele>
        <time>2020-03-07T15:20:51Z</time>
      </trkpt>
      <trkpt lat="47.51929" lon="-1.37573">
        <ele>33</ele>
        <time>2020-03-07T15:20:59Z</time>
      </trkpt>
      <trkpt lat="47.51921" lon="-1.37572">
        <ele>32</ele>
        <time>2020-03-07T15:21:03Z</time>
      </trkpt>
      <trkpt lat="47.51914" lon="-1.37571">
        <ele>32</ele>
        <time>2020-03-07T15:21:06Z</time>
      </trkpt>
      <trkpt lat="47.51894" lon="-1.37568">
        <ele>33</ele>
        <time>2020-03-07T15:21:13Z</time>
      </trkpt>
      <trkpt lat="47.51871" lon="-1.37565">
        <ele>33</ele>
        <time>2020-03-07T15:21:20Z</time>
      </trkpt>
      <trkpt lat="47.51853" lon="-1.37561">
        <ele>34</ele>
        <time>2020-03-07T15:21:26Z</time>
      </trkpt>
      <trkpt lat="47.51847" lon="-1.37561">
        <ele>34</ele>
        <time>2020-03-07T15:21:28Z</time>
      </trkpt>
      <trkpt lat="47.5182" lon="-1.37557">
        <ele>36</ele>
        <time>2020-03-07T15:21:37Z</time>
      </trkpt>
      <trkpt lat="47.51818" lon="-1.37557">
        <ele>36</ele>
        <time>2020-03-07T15:21:38Z</time>
      </trkpt>
      <trkpt lat="47.51805" lon="-1.37556">
        <ele>37</ele>
        <time>2020-03-07T15:21:44Z</time>
      </trkpt>
      <trkpt lat="47.51803" lon="-1.37556">
        <ele>37</ele>
        <time>2020-03-07T15:21:45Z</time>
      </trkpt>
      <trkpt lat="47.5179" lon="-1.37553">
        <ele>38</ele>
        <time>2020-03-07T15:21:51Z</time>
      </trkpt>
      <trkpt lat="47.51788" lon="-1.37553">
        <ele>38</ele>
        <time>2020-03-07T15:21:52Z</time>
      </trkpt>
      <trkpt lat="47.51776" lon="-1.37551">
        <ele>38</ele>
        <time>2020-03-07T15:21:58Z</time>
      </trkpt>
      <trkpt lat="47.5177" lon="-1.37551">
        <ele>39</ele>
        <time>2020-03-07T15:22:01Z</time>
      </trkpt>
      <trkpt lat="47.51764" lon="-1.3755">
        <ele>39</ele>
        <time>2020-03-07T15:22:04Z</time>
      </trkpt>
      <trkpt lat="47.51753" lon="-1.3755">
        <ele>40</ele>
        <time>2020-03-07T15:22:09Z</time>
      </trkpt>
      <trkpt lat="47.51748" lon="-1.37549">
        <ele>41</ele>
        <time>2020-03-07T15:22:11Z</time>
      </trkpt>
      <trkpt lat="47.51736" lon="-1.37548">
        <ele>42</ele>
        <time>2020-03-07T15:22:17Z</time>
      </trkpt>
      <trkpt lat="47.51734" lon="-1.37548">
        <ele>42</ele>
        <time>2020-03-07T15:22:18Z</time>
      </trkpt>
      <trkpt lat="47.51716" lon="-1.37544">
        <ele>43</ele>
        <time>2020-03-07T15:22:25Z</time>
      </trkpt>
      <trkpt lat="47.51714" lon="-1.37544">
        <ele>43</ele>
        <time>2020-03-07T15:22:26Z</time>
      </trkpt>
      <trkpt lat="47.51696" lon="-1.37541">
        <ele>44</ele>
        <time>2020-03-07T15:22:33Z</time>
      </trkpt>
      <trkpt lat="47.51694" lon="-1.37541">
        <ele>45</ele>
        <time>2020-03-07T15:22:34Z</time>
      </trkpt>
      <trkpt lat="47.51675" lon="-1.37538">
        <ele>46</ele>
        <time>2020-03-07T15:22:41Z</time>
      </trkpt>
      <trkpt lat="47.51669" lon="-1.37537">
        <ele>47</ele>
        <time>2020-03-07T15:22:43Z</time>
      </trkpt>
      <trkpt lat="47.5166" lon="-1.37536">
        <ele>47</ele>
        <time>2020-03-07T15:22:46Z</time>
      </trkpt>
      <trkpt lat="47.51642" lon="-1.37534">
        <ele>49</ele>
        <time>2020-03-07T15:22:53Z</time>
      </trkpt>
      <trkpt lat="47.51639" lon="-1.37534">
        <ele>49</ele>
        <time>2020-03-07T15:22:54Z</time>
      </trkpt>
      <trkpt lat="47.51617" lon="-1.37532">
        <ele>49</ele>
        <time>2020-03-07T15:23:02Z</time>
      </trkpt>
      <trkpt lat="47.51612" lon="-1.37531">
        <ele>49</ele>
        <time>2020-03-07T15:23:04Z</time>
      </trkpt>
      <trkpt lat="47.516" lon="-1.37529">
        <ele>49</ele>
        <time>2020-03-07T15:23:08Z</time>
      </trkpt>
      <trkpt lat="47.51593" lon="-1.37529">
        <ele>49</ele>
        <time>2020-03-07T15:23:11Z</time>
      </trkpt>
      <trkpt lat="47.51571" lon="-1.37526">
        <ele>49</ele>
        <time>2020-03-07T15:23:19Z</time>
      </trkpt>
      <trkpt lat="47.51541" lon="-1.37521">
        <ele>48</ele>
        <time>2020-03-07T15:23:31Z</time>
      </trkpt>
      <trkpt lat="47.51535" lon="-1.3752">
        <ele>48</ele>
        <time>2020-03-07T15:23:35Z</time>
      </trkpt>
      <trkpt lat="47.51533" lon="-1.37517">
        <ele>48</ele>
        <time>2020-03-07T15:24:48Z</time>
      </trkpt>
      <trkpt lat="47.5153" lon="-1.37506">
        <ele>48</ele>
        <time>2020-03-07T15:24:52Z</time>
      </trkpt>
      <trkpt lat="47.51523" lon="-1.37477">
        <ele>47</ele>
        <time>2020-03-07T15:24:58Z</time>
      </trkpt>
      <trkpt lat="47.51512" lon="-1.37431">
        <ele>45</ele>
        <time>2020-03-07T15:25:05Z</time>
      </trkpt>
      <trkpt lat="47.5151" lon="-1.37424">
        <ele>44</ele>
        <time>2020-03-07T15:25:06Z</time>
      </trkpt>
      <trkpt lat="47.51503" lon="-1.37389">
        <ele>44</ele>
        <time>2020-03-07T15:25:10Z</time>
      </trkpt>
      <trkpt lat="47.51499" lon="-1.37361">
        <ele>43</ele>
        <time>2020-03-07T15:25:13Z</time>
      </trkpt>
      <trkpt lat="47.51499" lon="-1.37352">
        <ele>43</ele>
        <time>2020-03-07T15:25:14Z</time>
      </trkpt>
      <trkpt lat="47.51498" lon="-1.37312">
        <ele>41</ele>
        <time>2020-03-07T15:25:18Z</time>
      </trkpt>
      <trkpt lat="47.51494" lon="-1.37293">
        <ele>40</ele>
        <time>2020-03-07T15:25:20Z</time>
      </trkpt>
      <trkpt lat="47.51492" lon="-1.37283">
        <ele>39</ele>
        <time>2020-03-07T15:25:21Z</time>
      </trkpt>
      <trkpt lat="47.51484" lon="-1.37265">
        <ele>39</ele>
        <time>2020-03-07T15:25:23Z</time>
      </trkpt>
      <trkpt lat="47.51479" lon="-1.37256">
        <ele>39</ele>
        <time>2020-03-07T15:25:24Z</time>
      </trkpt>
      <trkpt lat="47.51474" lon="-1.37248">
        <ele>38</ele>
        <time>2020-03-07T15:25:25Z</time>
      </trkpt>
      <trkpt lat="47.51462" lon="-1.37234">
        <ele>36</ele>
        <time>2020-03-07T15:25:27Z</time>
      </trkpt>
      <trkpt lat="47.51454" lon="-1.37229">
        <ele>35</ele>
        <time>2020-03-07T15:25:28Z</time>
      </trkpt>
      <trkpt lat="47.51446" lon="-1.37224">
        <ele>34</ele>
        <time>2020-03-07T15:25:29Z</time>
      </trkpt>
      <trkpt lat="47.5143" lon="-1.37217">
        <ele>32</ele>
        <time>2020-03-07T15:25:31Z</time>
      </trkpt>
      <trkpt lat="47.5142" lon="-1.37214">
        <ele>31</ele>
        <time>2020-03-07T15:25:32Z</time>
      </trkpt>
      <trkpt lat="47.51411" lon="-1.37211">
        <ele>30</ele>
        <time>2020-03-07T15:25:33Z</time>
      </trkpt>
      <trkpt lat="47.51392" lon="-1.37207">
        <ele>30</ele>
        <time>2020-03-07T15:25:35Z</time>
      </trkpt>
      <trkpt lat="47.51374" lon="-1.37202">
        <ele>28</ele>
        <time>2020-03-07T15:25:37Z</time>
      </trkpt>
      <trkpt lat="47.51357" lon="-1.37195">
        <ele>26</ele>
        <time>2020-03-07T15:25:39Z</time>
      </trkpt>
      <trkpt lat="47.51342" lon="-1.37187">
        <ele>24</ele>
        <time>2020-03-07T15:25:41Z</time>
      </trkpt>
      <trkpt lat="47.51327" lon="-1.37178">
        <ele>23</ele>
        <time>2020-03-07T15:25:43Z</time>
      </trkpt>
      <trkpt lat="47.51312" lon="-1.37169">
        <ele>23</ele>
        <time>2020-03-07T15:25:45Z</time>
      </trkpt>
      <trkpt lat="47.51301" lon="-1.37158">
        <ele>24</ele>
        <time>2020-03-07T15:25:47Z</time>
      </trkpt>
      <trkpt lat="47.51296" lon="-1.37152">
        <ele>25</ele>
        <time>2020-03-07T15:25:48Z</time>
      </trkpt>
      <trkpt lat="47.5129" lon="-1.37147">
        <ele>26</ele>
        <time>2020-03-07T15:25:49Z</time>
      </trkpt>
      <trkpt lat="47.51282" lon="-1.37138">
        <ele>26</ele>
        <time>2020-03-07T15:25:51Z</time>
      </trkpt>
      <trkpt lat="47.51279" lon="-1.37126">
        <ele>27</ele>
        <time>2020-03-07T15:25:53Z</time>
      </trkpt>
      <trkpt lat="47.51281" lon="-1.37115">
        <ele>27</ele>
        <time>2020-03-07T15:25:56Z</time>
      </trkpt>
      <trkpt lat="47.51286" lon="-1.37111">
        <ele>27</ele>
        <time>2020-03-07T15:25:59Z</time>
      </trkpt>
      <trkpt lat="47.51292" lon="-1.37109">
        <ele>27</ele>
        <time>2020-03-07T15:26:02Z</time>
      </trkpt>
      <trkpt lat="47.51299" lon="-1.37106">
        <ele>27</ele>
        <time>2020-03-07T15:26:38Z</time>
      </trkpt>
      <trkpt lat="47.51301" lon="-1.37105">
        <ele>27</ele>
        <time>2020-03-07T15:26:39Z</time>
      </trkpt>
      <trkpt lat="47.51321" lon="-1.37099">
        <ele>27</ele>
        <time>2020-03-07T15:26:46Z</time>
      </trkpt>
      <trkpt lat="47.51336" lon="-1.37093">
        <ele>27</ele>
        <time>2020-03-07T15:26:52Z</time>
      </trkpt>
      <trkpt lat="47.51338" lon="-1.37092">
        <ele>27</ele>
        <time>2020-03-07T15:26:53Z</time>
      </trkpt>
      <trkpt lat="47.51357" lon="-1.37084">
        <ele>28</ele>
        <time>2020-03-07T15:27:00Z</time>
      </trkpt>
      <trkpt lat="47.51371" lon="-1.37077">
        <ele>29</ele>
        <time>2020-03-07T15:27:06Z</time>
      </trkpt>
      <trkpt lat="47.51373" lon="-1.37076">
        <ele>29</ele>
        <time>2020-03-07T15:27:07Z</time>
      </trkpt>
      <trkpt lat="47.51386" lon="-1.3707">
        <ele>30</ele>
        <time>2020-03-07T15:27:13Z</time>
      </trkpt>
      <trkpt lat="47.51392" lon="-1.37069">
        <ele>30</ele>
        <time>2020-03-07T15:27:16Z</time>
      </trkpt>
      <trkpt lat="47.51406" lon="-1.37065">
        <ele>30</ele>
        <time>2020-03-07T15:27:23Z</time>
      </trkpt>
      <trkpt lat="47.51409" lon="-1.37064">
        <ele>30</ele>
        <time>2020-03-07T15:27:24Z</time>
      </trkpt>
      <trkpt lat="47.51423" lon="-1.3706">
        <ele>30</ele>
        <time>2020-03-07T15:27:32Z</time>
      </trkpt>
      <trkpt lat="47.51426" lon="-1.3706">
        <ele>30</ele>
        <time>2020-03-07T15:27:34Z</time>
      </trkpt>
      <trkpt lat="47.51431" lon="-1.37058">
        <ele>30</ele>
        <time>2020-03-07T15:27:38Z</time>
      </trkpt>
      <trkpt lat="47.51438" lon="-1.37054">
        <ele>30</ele>
        <time>2020-03-07T15:27:43Z</time>
      </trkpt>
      <trkpt lat="47.51441" lon="-1.37053">
        <ele>30</ele>
        <time>2020-03-07T15:27:45Z</time>
      </trkpt>
      <trkpt lat="47.51451" lon="-1.37049">
        <ele>30</ele>
        <time>2020-03-07T15:27:51Z</time>
      </trkpt>
      <trkpt lat="47.51453" lon="-1.37048">
        <ele>30</ele>
        <time>2020-03-07T15:27:52Z</time>
      </trkpt>
      <trkpt lat="47.51466" lon="-1.3704">
        <ele>30</ele>
        <time>2020-03-07T15:28:00Z</time>
      </trkpt>
      <trkpt lat="47.51468" lon="-1.37039">
        <ele>30</ele>
        <time>2020-03-07T15:28:01Z</time>
      </trkpt>
      <trkpt lat="47.51481" lon="-1.37032">
        <ele>31</ele>
        <time>2020-03-07T15:28:08Z</time>
      </trkpt>
      <trkpt lat="47.51492" lon="-1.37027">
        <ele>32</ele>
        <time>2020-03-07T15:28:14Z</time>
      </trkpt>
      <trkpt lat="47.51495" lon="-1.37026">
        <ele>33</ele>
        <time>2020-03-07T15:28:16Z</time>
      </trkpt>
      <trkpt lat="47.51509" lon="-1.37018">
        <ele>34</ele>
        <time>2020-03-07T15:28:23Z</time>
      </trkpt>
      <trkpt lat="47.5151" lon="-1.37017">
        <ele>34</ele>
        <time>2020-03-07T15:28:24Z</time>
      </trkpt>
      <trkpt lat="47.51518" lon="-1.37005">
        <ele>35</ele>
        <time>2020-03-07T15:28:30Z</time>
      </trkpt>
      <trkpt lat="47.51519" lon="-1.37004">
        <ele>35</ele>
        <time>2020-03-07T15:28:31Z</time>
      </trkpt>
      <trkpt lat="47.51519" lon="-1.36982">
        <ele>37</ele>
        <time>2020-03-07T15:29:18Z</time>
      </trkpt>
      <trkpt lat="47.51519" lon="-1.3698">
        <ele>37</ele>
        <time>2020-03-07T15:29:19Z</time>
      </trkpt>
      <trkpt lat="47.51518" lon="-1.36968">
        <ele>38</ele>
        <time>2020-03-07T15:29:26Z</time>
      </trkpt>
      <trkpt lat="47.51518" lon="-1.3696">
        <ele>39</ele>
        <time>2020-03-07T15:29:31Z</time>
      </trkpt>
      <trkpt lat="47.51517" lon="-1.36957">
        <ele>39</ele>
        <time>2020-03-07T15:29:33Z</time>
      </trkpt>
      <trkpt lat="47.51517" lon="-1.36946">
        <ele>40</ele>
        <time>2020-03-07T15:29:40Z</time>
      </trkpt>
      <trkpt lat="47.51517" lon="-1.36935">
        <ele>41</ele>
        <time>2020-03-07T15:29:47Z</time>
      </trkpt>
      <trkpt lat="47.51516" lon="-1.3693">
        <ele>42</ele>
        <time>2020-03-07T15:29:50Z</time>
      </trkpt>
      <trkpt lat="47.51515" lon="-1.36917">
        <ele>43</ele>
        <time>2020-03-07T15:29:58Z</time>
      </trkpt>
      <trkpt lat="47.51515" lon="-1.36914">
        <ele>43</ele>
        <time>2020-03-07T15:30:00Z</time>
      </trkpt>
      <trkpt lat="47.51514" lon="-1.369">
        <ele>44</ele>
        <time>2020-03-07T15:30:09Z</time>
      </trkpt>
      <trkpt lat="47.51514" lon="-1.36899">
        <ele>44</ele>
        <time>2020-03-07T15:30:10Z</time>
      </trkpt>
      <trkpt lat="47.51513" lon="-1.36895">
        <ele>44</ele>
        <time>2020-03-07T15:30:19Z</time>
      </trkpt>
      <trkpt lat="47.51512" lon="-1.36889">
        <ele>45</ele>
        <time>2020-03-07T15:30:21Z</time>
      </trkpt>
      <trkpt lat="47.51511" lon="-1.3687">
        <ele>46</ele>
        <time>2020-03-07T15:30:27Z</time>
      </trkpt>
      <trkpt lat="47.5151" lon="-1.36854">
        <ele>47</ele>
        <time>2020-03-07T15:30:32Z</time>
      </trkpt>
      <trkpt lat="47.51509" lon="-1.36843">
        <ele>48</ele>
        <time>2020-03-07T15:30:35Z</time>
      </trkpt>
      <trkpt lat="47.51507" lon="-1.36814">
        <ele>49</ele>
        <time>2020-03-07T15:30:43Z</time>
      </trkpt>
      <trkpt lat="47.51505" lon="-1.36778">
        <ele>49</ele>
        <time>2020-03-07T15:30:53Z</time>
      </trkpt>
      <trkpt lat="47.51505" lon="-1.36774">
        <ele>49</ele>
        <time>2020-03-07T15:30:54Z</time>
      </trkpt>
      <trkpt lat="47.51502" lon="-1.36744">
        <ele>50</ele>
        <time>2020-03-07T15:31:02Z</time>
      </trkpt>
      <trkpt lat="47.515" lon="-1.36701">
        <ele>50</ele>
        <time>2020-03-07T15:31:13Z</time>
      </trkpt>
      <trkpt lat="47.51498" lon="-1.36678">
        <ele>50</ele>
        <time>2020-03-07T15:31:19Z</time>
      </trkpt>
      <trkpt lat="47.51497" lon="-1.36659">
        <ele>50</ele>
        <time>2020-03-07T15:31:24Z</time>
      </trkpt>
      <trkpt lat="47.51495" lon="-1.3661">
        <ele>52</ele>
        <time>2020-03-07T15:31:37Z</time>
      </trkpt>
      <trkpt lat="47.51495" lon="-1.36607">
        <ele>52</ele>
        <time>2020-03-07T15:31:38Z</time>
      </trkpt>
      <trkpt lat="47.51492" lon="-1.36565">
        <ele>52</ele>
        <time>2020-03-07T15:31:50Z</time>
      </trkpt>
      <trkpt lat="47.51487" lon="-1.36547">
        <ele>52</ele>
        <time>2020-03-07T15:31:57Z</time>
      </trkpt>
      <trkpt lat="47.51479" lon="-1.36541">
        <ele>52</ele>
        <time>2020-03-07T15:32:02Z</time>
      </trkpt>
      <trkpt lat="47.51477" lon="-1.36541">
        <ele>52</ele>
        <time>2020-03-07T15:32:03Z</time>
      </trkpt>
      <trkpt lat="47.51465" lon="-1.36542">
        <ele>53</ele>
        <time>2020-03-07T15:32:10Z</time>
      </trkpt>
      <trkpt lat="47.51444" lon="-1.36544">
        <ele>52</ele>
        <time>2020-03-07T15:32:18Z</time>
      </trkpt>
      <trkpt lat="47.51421" lon="-1.36546">
        <ele>51</ele>
        <time>2020-03-07T15:32:25Z</time>
      </trkpt>
      <trkpt lat="47.51415" lon="-1.36547">
        <ele>50</ele>
        <time>2020-03-07T15:32:27Z</time>
      </trkpt>
      <trkpt lat="47.51402" lon="-1.36547">
        <ele>49</ele>
        <time>2020-03-07T15:32:31Z</time>
      </trkpt>
      <trkpt lat="47.51372" lon="-1.3655">
        <ele>47</ele>
        <time>2020-03-07T15:32:40Z</time>
      </trkpt>
      <trkpt lat="47.51369" lon="-1.36549">
        <ele>47</ele>
        <time>2020-03-07T15:32:41Z</time>
      </trkpt>
      <trkpt lat="47.51348" lon="-1.36546">
        <ele>46</ele>
        <time>2020-03-07T15:32:46Z</time>
      </trkpt>
      <trkpt lat="47.51344" lon="-1.36545">
        <ele>46</ele>
        <time>2020-03-07T15:32:47Z</time>
      </trkpt>
      <trkpt lat="47.51325" lon="-1.36539">
        <ele>45</ele>
        <time>2020-03-07T15:32:51Z</time>
      </trkpt>
      <trkpt lat="47.51311" lon="-1.36534">
        <ele>45</ele>
        <time>2020-03-07T15:32:54Z</time>
      </trkpt>
      <trkpt lat="47.51306" lon="-1.36532">
        <ele>45</ele>
        <time>2020-03-07T15:32:55Z</time>
      </trkpt>
      <trkpt lat="47.51285" lon="-1.36525">
        <ele>45</ele>
        <time>2020-03-07T15:32:59Z</time>
      </trkpt>
      <trkpt lat="47.51274" lon="-1.36521">
        <ele>45</ele>
        <time>2020-03-07T15:33:01Z</time>
      </trkpt>
      <trkpt lat="47.51268" lon="-1.36519">
        <ele>44</ele>
        <time>2020-03-07T15:33:02Z</time>
      </trkpt>
      <trkpt lat="47.5124" lon="-1.3651">
        <ele>43</ele>
        <time>2020-03-07T15:33:08Z</time>
      </trkpt>
      <trkpt lat="47.51211" lon="-1.36501">
        <ele>44</ele>
        <time>2020-03-07T15:33:16Z</time>
      </trkpt>
      <trkpt lat="47.512" lon="-1.36505">
        <ele>44</ele>
        <time>2020-03-07T15:33:19Z</time>
      </trkpt>
      <trkpt lat="47.51193" lon="-1.36509">
        <ele>44</ele>
        <time>2020-03-07T15:33:21Z</time>
      </trkpt>
      <trkpt lat="47.51173" lon="-1.36521">
        <ele>45</ele>
        <time>2020-03-07T15:33:28Z</time>
      </trkpt>
      <trkpt lat="47.51165" lon="-1.36513">
        <ele>46</ele>
        <time>2020-03-07T15:33:32Z</time>
      </trkpt>
      <trkpt lat="47.51165" lon="-1.36511">
        <ele>46</ele>
        <time>2020-03-07T15:33:33Z</time>
      </trkpt>
      <trkpt lat="47.51167" lon="-1.36502">
        <ele>46</ele>
        <time>2020-03-07T15:33:36Z</time>
      </trkpt>
      <trkpt lat="47.51177" lon="-1.3648">
        <ele>46</ele>
        <time>2020-03-07T15:33:42Z</time>
      </trkpt>
      <trkpt lat="47.51192" lon="-1.36451">
        <ele>46</ele>
        <time>2020-03-07T15:33:50Z</time>
      </trkpt>
      <trkpt lat="47.51209" lon="-1.36415">
        <ele>47</ele>
        <time>2020-03-07T15:33:59Z</time>
      </trkpt>
      <trkpt lat="47.51215" lon="-1.364">
        <ele>47</ele>
        <time>2020-03-07T15:34:03Z</time>
      </trkpt>
      <trkpt lat="47.51222" lon="-1.36386">
        <ele>48</ele>
        <time>2020-03-07T15:34:07Z</time>
      </trkpt>
      <trkpt lat="47.5123" lon="-1.36368">
        <ele>48</ele>
        <time>2020-03-07T15:34:12Z</time>
      </trkpt>
      <trkpt lat="47.51236" lon="-1.36353">
        <ele>48</ele>
        <time>2020-03-07T15:34:16Z</time>
      </trkpt>
      <trkpt lat="47.51242" lon="-1.36333">
        <ele>49</ele>
        <time>2020-03-07T15:34:21Z</time>
      </trkpt>
      <trkpt lat="47.51244" lon="-1.36319">
        <ele>49</ele>
        <time>2020-03-07T15:34:24Z</time>
      </trkpt>
      <trkpt lat="47.51246" lon="-1.36286">
        <ele>48</ele>
        <time>2020-03-07T15:34:31Z</time>
      </trkpt>
      <trkpt lat="47.51247" lon="-1.36271">
        <ele>48</ele>
        <time>2020-03-07T15:34:34Z</time>
      </trkpt>
      <trkpt lat="47.5125" lon="-1.36238">
        <ele>48</ele>
        <time>2020-03-07T15:34:41Z</time>
      </trkpt>
      <trkpt lat="47.51254" lon="-1.3619">
        <ele>50</ele>
        <time>2020-03-07T15:34:52Z</time>
      </trkpt>
      <trkpt lat="47.51256" lon="-1.36166">
        <ele>51</ele>
        <time>2020-03-07T15:34:57Z</time>
      </trkpt>
      <trkpt lat="47.51257" lon="-1.36149">
        <ele>51</ele>
        <time>2020-03-07T15:35:01Z</time>
      </trkpt>
      <trkpt lat="47.51263" lon="-1.36097">
        <ele>49</ele>
        <time>2020-03-07T15:35:12Z</time>
      </trkpt>
      <trkpt lat="47.51268" lon="-1.36043">
        <ele>49</ele>
        <time>2020-03-07T15:35:23Z</time>
      </trkpt>
      <trkpt lat="47.51271" lon="-1.35995">
        <ele>50</ele>
        <time>2020-03-07T15:35:33Z</time>
      </trkpt>
      <trkpt lat="47.51273" lon="-1.35977">
        <ele>50</ele>
        <time>2020-03-07T15:35:37Z</time>
      </trkpt>
      <trkpt lat="47.51275" lon="-1.35948">
        <ele>50</ele>
        <time>2020-03-07T15:35:43Z</time>
      </trkpt>
      <trkpt lat="47.51279" lon="-1.35886">
        <ele>52</ele>
        <time>2020-03-07T15:35:56Z</time>
      </trkpt>
      <trkpt lat="47.51284" lon="-1.35844">
        <ele>53</ele>
        <time>2020-03-07T15:36:05Z</time>
      </trkpt>
      <trkpt lat="47.51285" lon="-1.35822">
        <ele>53</ele>
        <time>2020-03-07T15:36:10Z</time>
      </trkpt>
      <trkpt lat="47.51287" lon="-1.358">
        <ele>54</ele>
        <time>2020-03-07T15:36:15Z</time>
      </trkpt>
      <trkpt lat="47.5129" lon="-1.35769">
        <ele>55</ele>
        <time>2020-03-07T15:36:22Z</time>
      </trkpt>
      <trkpt lat="47.51291" lon="-1.35749">
        <ele>56</ele>
        <time>2020-03-07T15:36:27Z</time>
      </trkpt>
      <trkpt lat="47.51291" lon="-1.35718">
        <ele>57</ele>
        <time>2020-03-07T15:36:35Z</time>
      </trkpt>
      <trkpt lat="47.51292" lon="-1.3571">
        <ele>57</ele>
        <time>2020-03-07T15:36:37Z</time>
      </trkpt>
      <trkpt lat="47.51295" lon="-1.3569">
        <ele>57</ele>
        <time>2020-03-07T15:36:42Z</time>
      </trkpt>
      <trkpt lat="47.51298" lon="-1.35658">
        <ele>57</ele>
        <time>2020-03-07T15:36:49Z</time>
      </trkpt>
      <trkpt lat="47.513" lon="-1.35631">
        <ele>58</ele>
        <time>2020-03-07T15:36:56Z</time>
      </trkpt>
      <trkpt lat="47.51301" lon="-1.35598">
        <ele>58</ele>
        <time>2020-03-07T15:37:03Z</time>
      </trkpt>
      <trkpt lat="47.51302" lon="-1.35549">
        <ele>57</ele>
        <time>2020-03-07T15:37:12Z</time>
      </trkpt>
      <trkpt lat="47.51303" lon="-1.35507">
        <ele>57</ele>
        <time>2020-03-07T15:37:20Z</time>
      </trkpt>
      <trkpt lat="47.51303" lon="-1.3545">
        <ele>56</ele>
        <time>2020-03-07T15:37:30Z</time>
      </trkpt>
      <trkpt lat="47.51302" lon="-1.35413">
        <ele>56</ele>
        <time>2020-03-07T15:37:37Z</time>
      </trkpt>
      <trkpt lat="47.51308" lon="-1.35374">
        <ele>56</ele>
        <time>2020-03-07T15:37:44Z</time>
      </trkpt>
      <trkpt lat="47.51321" lon="-1.35335">
        <ele>56</ele>
        <time>2020-03-07T15:37:52Z</time>
      </trkpt>
      <trkpt lat="47.51341" lon="-1.35274">
        <ele>56</ele>
        <time>2020-03-07T15:38:04Z</time>
      </trkpt>
      <trkpt lat="47.51354" lon="-1.35233">
        <ele>56</ele>
        <time>2020-03-07T15:38:13Z</time>
      </trkpt>
      <trkpt lat="47.51364" lon="-1.35207">
        <ele>55</ele>
        <time>2020-03-07T15:38:20Z</time>
      </trkpt>
      <trkpt lat="47.51368" lon="-1.35205">
        <ele>55</ele>
        <time>2020-03-07T15:40:35Z</time>
      </trkpt>
      <trkpt lat="47.51373" lon="-1.35218">
        <ele>55</ele>
        <time>2020-03-07T15:40:39Z</time>
      </trkpt>
      <trkpt lat="47.51381" lon="-1.35244">
        <ele>55</ele>
        <time>2020-03-07T15:40:45Z</time>
      </trkpt>
      <trkpt lat="47.51395" lon="-1.35289">
        <ele>56</ele>
        <time>2020-03-07T15:40:53Z</time>
      </trkpt>
      <trkpt lat="47.51411" lon="-1.35332">
        <ele>56</ele>
        <time>2020-03-07T15:41:00Z</time>
      </trkpt>
      <trkpt lat="47.51414" lon="-1.35336">
        <ele>56</ele>
        <time>2020-03-07T15:41:01Z</time>
      </trkpt>
      <trkpt lat="47.5143" lon="-1.35346">
        <ele>55</ele>
        <time>2020-03-07T15:41:05Z</time>
      </trkpt>
      <trkpt lat="47.51445" lon="-1.35347">
        <ele>55</ele>
        <time>2020-03-07T15:41:08Z</time>
      </trkpt>
      <trkpt lat="47.51459" lon="-1.35349">
        <ele>55</ele>
        <time>2020-03-07T15:41:11Z</time>
      </trkpt>
      <trkpt lat="47.51464" lon="-1.35351">
        <ele>54</ele>
        <time>2020-03-07T15:41:12Z</time>
      </trkpt>
      <trkpt lat="47.51479" lon="-1.35365">
        <ele>54</ele>
        <time>2020-03-07T15:41:16Z</time>
      </trkpt>
      <trkpt lat="47.51486" lon="-1.35375">
        <ele>54</ele>
        <time>2020-03-07T15:41:18Z</time>
      </trkpt>
      <trkpt lat="47.51507" lon="-1.35402">
        <ele>55</ele>
        <time>2020-03-07T15:41:24Z</time>
      </trkpt>
      <trkpt lat="47.51518" lon="-1.35413">
        <ele>55</ele>
        <time>2020-03-07T15:41:27Z</time>
      </trkpt>
      <trkpt lat="47.51522" lon="-1.35416">
        <ele>55</ele>
        <time>2020-03-07T15:41:28Z</time>
      </trkpt>
      <trkpt lat="47.51537" lon="-1.35425">
        <ele>54</ele>
        <time>2020-03-07T15:41:31Z</time>
      </trkpt>
      <trkpt lat="47.51559" lon="-1.35437">
        <ele>53</ele>
        <time>2020-03-07T15:41:35Z</time>
      </trkpt>
      <trkpt lat="47.51578" lon="-1.35447">
        <ele>52</ele>
        <time>2020-03-07T15:41:38Z</time>
      </trkpt>
      <trkpt lat="47.51597" lon="-1.35457">
        <ele>51</ele>
        <time>2020-03-07T15:41:41Z</time>
      </trkpt>
      <trkpt lat="47.51614" lon="-1.35464">
        <ele>49</ele>
        <time>2020-03-07T15:41:44Z</time>
      </trkpt>
      <trkpt lat="47.51619" lon="-1.35467">
        <ele>49</ele>
        <time>2020-03-07T15:41:45Z</time>
      </trkpt>
      <trkpt lat="47.51628" lon="-1.3547">
        <ele>49</ele>
        <time>2020-03-07T15:41:47Z</time>
      </trkpt>
      <trkpt lat="47.51632" lon="-1.3547">
        <ele>49</ele>
        <time>2020-03-07T15:41:48Z</time>
      </trkpt>
      <trkpt lat="47.51636" lon="-1.35469">
        <ele>49</ele>
        <time>2020-03-07T15:41:49Z</time>
      </trkpt>
      <trkpt lat="47.51645" lon="-1.35456">
        <ele>49</ele>
        <time>2020-03-07T15:41:52Z</time>
      </trkpt>
      <trkpt lat="47.51651" lon="-1.35442">
        <ele>48</ele>
        <time>2020-03-07T15:41:54Z</time>
      </trkpt>
      <trkpt lat="47.51654" lon="-1.35434">
        <ele>47</ele>
        <time>2020-03-07T15:41:55Z</time>
      </trkpt>
      <trkpt lat="47.51657" lon="-1.35425">
        <ele>47</ele>
        <time>2020-03-07T15:41:56Z</time>
      </trkpt>
      <trkpt lat="47.51663" lon="-1.35407">
        <ele>46</ele>
        <time>2020-03-07T15:41:58Z</time>
      </trkpt>
      <trkpt lat="47.51674" lon="-1.35379">
        <ele>44</ele>
        <time>2020-03-07T15:42:01Z</time>
      </trkpt>
      <trkpt lat="47.51678" lon="-1.3537">
        <ele>44</ele>
        <time>2020-03-07T15:42:02Z</time>
      </trkpt>
      <trkpt lat="47.51688" lon="-1.35354">
        <ele>43</ele>
        <time>2020-03-07T15:42:04Z</time>
      </trkpt>
      <trkpt lat="47.51704" lon="-1.35329">
        <ele>42</ele>
        <time>2020-03-07T15:42:07Z</time>
      </trkpt>
      <trkpt lat="47.51727" lon="-1.35296">
        <ele>41</ele>
        <time>2020-03-07T15:42:11Z</time>
      </trkpt>
      <trkpt lat="47.5175" lon="-1.3526">
        <ele>39</ele>
        <time>2020-03-07T15:42:15Z</time>
      </trkpt>
      <trkpt lat="47.51761" lon="-1.35242">
        <ele>37</ele>
        <time>2020-03-07T15:42:17Z</time>
      </trkpt>
      <trkpt lat="47.51767" lon="-1.35233">
        <ele>36</ele>
        <time>2020-03-07T15:42:18Z</time>
      </trkpt>
      <trkpt lat="47.51784" lon="-1.35207">
        <ele>36</ele>
        <time>2020-03-07T15:42:21Z</time>
      </trkpt>
      <trkpt lat="47.518" lon="-1.35182">
        <ele>35</ele>
        <time>2020-03-07T15:42:24Z</time>
      </trkpt>
      <trkpt lat="47.5181" lon="-1.35167">
        <ele>34</ele>
        <time>2020-03-07T15:42:26Z</time>
      </trkpt>
      <trkpt lat="47.51827" lon="-1.35139">
        <ele>32</ele>
        <time>2020-03-07T15:42:30Z</time>
      </trkpt>
      <trkpt lat="47.51836" lon="-1.35129">
        <ele>32</ele>
        <time>2020-03-07T15:42:32Z</time>
      </trkpt>
      <trkpt lat="47.5184" lon="-1.35126">
        <ele>31</ele>
        <time>2020-03-07T15:42:33Z</time>
      </trkpt>
      <trkpt lat="47.51845" lon="-1.35123">
        <ele>31</ele>
        <time>2020-03-07T15:42:34Z</time>
      </trkpt>
      <trkpt lat="47.51852" lon="-1.35116">
        <ele>31</ele>
        <time>2020-03-07T15:42:36Z</time>
      </trkpt>
      <trkpt lat="47.51854" lon="-1.35107">
        <ele>31</ele>
        <time>2020-03-07T15:42:38Z</time>
      </trkpt>
      <trkpt lat="47.51851" lon="-1.35094">
        <ele>32</ele>
        <time>2020-03-07T15:42:41Z</time>
      </trkpt>
      <trkpt lat="47.51847" lon="-1.35086">
        <ele>33</ele>
        <time>2020-03-07T15:42:43Z</time>
      </trkpt>
      <trkpt lat="47.51837" lon="-1.35071">
        <ele>36</ele>
        <time>2020-03-07T15:42:48Z</time>
      </trkpt>
      <trkpt lat="47.5183" lon="-1.35059">
        <ele>37</ele>
        <time>2020-03-07T15:42:53Z</time>
      </trkpt>
      <trkpt lat="47.51825" lon="-1.35053">
        <ele>38</ele>
        <time>2020-03-07T15:42:56Z</time>
      </trkpt>
      <trkpt lat="47.51823" lon="-1.35049">
        <ele>38</ele>
        <time>2020-03-07T15:42:58Z</time>
      </trkpt>
      <trkpt lat="47.51818" lon="-1.3504">
        <ele>39</ele>
        <time>2020-03-07T15:43:02Z</time>
      </trkpt>
      <trkpt lat="47.51814" lon="-1.35033">
        <ele>39</ele>
        <time>2020-03-07T15:43:05Z</time>
      </trkpt>
      <trkpt lat="47.51813" lon="-1.35031">
        <ele>39</ele>
        <time>2020-03-07T15:43:06Z</time>
      </trkpt>
      <trkpt lat="47.51808" lon="-1.35018">
        <ele>40</ele>
        <time>2020-03-07T15:43:11Z</time>
      </trkpt>
      <trkpt lat="47.51807" lon="-1.35012">
        <ele>40</ele>
        <time>2020-03-07T15:43:13Z</time>
      </trkpt>
      <trkpt lat="47.51806" lon="-1.35009">
        <ele>40</ele>
        <time>2020-03-07T15:43:14Z</time>
      </trkpt>
      <trkpt lat="47.51804" lon="-1.34993">
        <ele>41</ele>
        <time>2020-03-07T15:43:19Z</time>
      </trkpt>
      <trkpt lat="47.51803" lon="-1.34983">
        <ele>41</ele>
        <time>2020-03-07T15:43:22Z</time>
      </trkpt>
      <trkpt lat="47.51804" lon="-1.34975">
        <ele>41</ele>
        <time>2020-03-07T15:43:24Z</time>
      </trkpt>
      <trkpt lat="47.51806" lon="-1.34949">
        <ele>42</ele>
        <time>2020-03-07T15:43:31Z</time>
      </trkpt>
      <trkpt lat="47.51806" lon="-1.34942">
        <ele>43</ele>
        <time>2020-03-07T15:43:33Z</time>
      </trkpt>
      <trkpt lat="47.51808" lon="-1.34925">
        <ele>43</ele>
        <time>2020-03-07T15:43:38Z</time>
      </trkpt>
      <trkpt lat="47.51808" lon="-1.34917">
        <ele>43</ele>
        <time>2020-03-07T15:43:40Z</time>
      </trkpt>
      <trkpt lat="47.51811" lon="-1.34891">
        <ele>44</ele>
        <time>2020-03-07T15:43:47Z</time>
      </trkpt>
      <trkpt lat="47.51812" lon="-1.34869">
        <ele>45</ele>
        <time>2020-03-07T15:43:53Z</time>
      </trkpt>
      <trkpt lat="47.51813" lon="-1.34859">
        <ele>46</ele>
        <time>2020-03-07T15:43:56Z</time>
      </trkpt>
      <trkpt lat="47.51815" lon="-1.34839">
        <ele>46</ele>
        <time>2020-03-07T15:44:02Z</time>
      </trkpt>
      <trkpt lat="47.51815" lon="-1.34836">
        <ele>46</ele>
        <time>2020-03-07T15:44:03Z</time>
      </trkpt>
      <trkpt lat="47.51818" lon="-1.34808">
        <ele>47</ele>
        <time>2020-03-07T15:44:11Z</time>
      </trkpt>
      <trkpt lat="47.51818" lon="-1.34798">
        <ele>48</ele>
        <time>2020-03-07T15:44:14Z</time>
      </trkpt>
      <trkpt lat="47.5182" lon="-1.34777">
        <ele>49</ele>
        <time>2020-03-07T15:44:20Z</time>
      </trkpt>
      <trkpt lat="47.51821" lon="-1.3476">
        <ele>49</ele>
        <time>2020-03-07T15:44:25Z</time>
      </trkpt>
      <trkpt lat="47.51822" lon="-1.34726">
        <ele>50</ele>
        <time>2020-03-07T15:44:35Z</time>
      </trkpt>
      <trkpt lat="47.51822" lon="-1.34722">
        <ele>50</ele>
        <time>2020-03-07T15:44:36Z</time>
      </trkpt>
      <trkpt lat="47.51823" lon="-1.34695">
        <ele>50</ele>
        <time>2020-03-07T15:44:44Z</time>
      </trkpt>
      <trkpt lat="47.51823" lon="-1.34691">
        <ele>51</ele>
        <time>2020-03-07T15:44:45Z</time>
      </trkpt>
      <trkpt lat="47.51824" lon="-1.34673">
        <ele>51</ele>
        <time>2020-03-07T15:44:51Z</time>
      </trkpt>
      <trkpt lat="47.51824" lon="-1.34662">
        <ele>51</ele>
        <time>2020-03-07T15:44:54Z</time>
      </trkpt>
      <trkpt lat="47.51825" lon="-1.34638">
        <ele>51</ele>
        <time>2020-03-07T15:45:00Z</time>
      </trkpt>
      <trkpt lat="47.51827" lon="-1.34609">
        <ele>51</ele>
        <time>2020-03-07T15:45:09Z</time>
      </trkpt>
      <trkpt lat="47.51828" lon="-1.34603">
        <ele>51</ele>
        <time>2020-03-07T16:02:43Z</time>
      </trkpt>
      <trkpt lat="47.51828" lon="-1.34598">
        <ele>51</ele>
        <time>2020-03-07T16:02:45Z</time>
      </trkpt>
      <trkpt lat="47.51828" lon="-1.3457">
        <ele>52</ele>
        <time>2020-03-07T16:02:52Z</time>
      </trkpt>
      <trkpt lat="47.51819" lon="-1.34538">
        <ele>52</ele>
        <time>2020-03-07T16:03:00Z</time>
      </trkpt>
      <trkpt lat="47.51804" lon="-1.34497">
        <ele>53</ele>
        <time>2020-03-07T16:03:09Z</time>
      </trkpt>
      <trkpt lat="47.51791" lon="-1.34462">
        <ele>54</ele>
        <time>2020-03-07T16:03:16Z</time>
      </trkpt>
      <trkpt lat="47.51776" lon="-1.34423">
        <ele>54</ele>
        <time>2020-03-07T16:03:23Z</time>
      </trkpt>
      <trkpt lat="47.51767" lon="-1.344">
        <ele>55</ele>
        <time>2020-03-07T16:03:27Z</time>
      </trkpt>
      <trkpt lat="47.5176" lon="-1.34392">
        <ele>55</ele>
        <time>2020-03-07T16:03:29Z</time>
      </trkpt>
      <trkpt lat="47.51743" lon="-1.34385">
        <ele>55</ele>
        <time>2020-03-07T16:03:33Z</time>
      </trkpt>
      <trkpt lat="47.51739" lon="-1.34385">
        <ele>55</ele>
        <time>2020-03-07T16:03:34Z</time>
      </trkpt>
      <trkpt lat="47.51713" lon="-1.34378">
        <ele>55</ele>
        <time>2020-03-07T16:03:40Z</time>
      </trkpt>
      <trkpt lat="47.5168" lon="-1.34368">
        <ele>56</ele>
        <time>2020-03-07T16:03:48Z</time>
      </trkpt>
      <trkpt lat="47.5164" lon="-1.34357">
        <ele>55</ele>
        <time>2020-03-07T16:03:57Z</time>
      </trkpt>
      <trkpt lat="47.51596" lon="-1.34345">
        <ele>55</ele>
        <time>2020-03-07T16:04:07Z</time>
      </trkpt>
      <trkpt lat="47.51591" lon="-1.34344">
        <ele>55</ele>
        <time>2020-03-07T16:04:08Z</time>
      </trkpt>
      <trkpt lat="47.51548" lon="-1.34331">
        <ele>56</ele>
        <time>2020-03-07T16:04:18Z</time>
      </trkpt>
      <trkpt lat="47.51515" lon="-1.34322">
        <ele>57</ele>
        <time>2020-03-07T16:04:26Z</time>
      </trkpt>
      <trkpt lat="47.51486" lon="-1.3432">
        <ele>59</ele>
        <time>2020-03-07T16:04:33Z</time>
      </trkpt>
      <trkpt lat="47.51462" lon="-1.34326">
        <ele>60</ele>
        <time>2020-03-07T16:04:40Z</time>
      </trkpt>
      <trkpt lat="47.51443" lon="-1.34331">
        <ele>61</ele>
        <time>2020-03-07T16:04:46Z</time>
      </trkpt>
      <trkpt lat="47.51433" lon="-1.34334">
        <ele>60</ele>
        <time>2020-03-07T16:04:49Z</time>
      </trkpt>
      <trkpt lat="47.51397" lon="-1.34344">
        <ele>61</ele>
        <time>2020-03-07T16:04:59Z</time>
      </trkpt>
      <trkpt lat="47.51393" lon="-1.34345">
        <ele>61</ele>
        <time>2020-03-07T16:05:00Z</time>
      </trkpt>
      <trkpt lat="47.51356" lon="-1.34355">
        <ele>62</ele>
        <time>2020-03-07T16:05:10Z</time>
      </trkpt>
      <trkpt lat="47.51353" lon="-1.34355">
        <ele>62</ele>
        <time>2020-03-07T16:05:11Z</time>
      </trkpt>
      <trkpt lat="47.51336" lon="-1.34359">
        <ele>62</ele>
        <time>2020-03-07T16:05:16Z</time>
      </trkpt>
      <trkpt lat="47.51332" lon="-1.34359">
        <ele>63</ele>
        <time>2020-03-07T16:05:17Z</time>
      </trkpt>
      <trkpt lat="47.5131" lon="-1.34365">
        <ele>63</ele>
        <time>2020-03-07T16:05:24Z</time>
      </trkpt>
      <trkpt lat="47.51303" lon="-1.34368">
        <ele>64</ele>
        <time>2020-03-07T16:05:27Z</time>
      </trkpt>
      <trkpt lat="47.513" lon="-1.34367">
        <ele>64</ele>
        <time>2020-03-07T16:05:29Z</time>
      </trkpt>
      <trkpt lat="47.51298" lon="-1.34362">
        <ele>64</ele>
        <time>2020-03-07T16:05:31Z</time>
      </trkpt>
      <trkpt lat="47.5129" lon="-1.34336">
        <ele>64</ele>
        <time>2020-03-07T16:05:37Z</time>
      </trkpt>
      <trkpt lat="47.51276" lon="-1.34307">
        <ele>65</ele>
        <time>2020-03-07T16:05:44Z</time>
      </trkpt>
      <trkpt lat="47.51263" lon="-1.34292">
        <ele>65</ele>
        <time>2020-03-07T16:05:50Z</time>
      </trkpt>
      <trkpt lat="47.51252" lon="-1.34281">
        <ele>65</ele>
        <time>2020-03-07T16:05:55Z</time>
      </trkpt>
      <trkpt lat="47.51247" lon="-1.34271">
        <ele>65</ele>
        <time>2020-03-07T16:05:58Z</time>
      </trkpt>
      <trkpt lat="47.51241" lon="-1.34239">
        <ele>65</ele>
        <time>2020-03-07T16:06:05Z</time>
      </trkpt>
      <trkpt lat="47.51237" lon="-1.34207">
        <ele>64</ele>
        <time>2020-03-07T16:06:11Z</time>
      </trkpt>
      <trkpt lat="47.51231" lon="-1.34145">
        <ele>64</ele>
        <time>2020-03-07T16:06:21Z</time>
      </trkpt>
      <trkpt lat="47.51223" lon="-1.34082">
        <ele>63</ele>
        <time>2020-03-07T16:06:31Z</time>
      </trkpt>
      <trkpt lat="47.51217" lon="-1.34024">
        <ele>63</ele>
        <time>2020-03-07T16:06:40Z</time>
      </trkpt>
      <trkpt lat="47.51219" lon="-1.33994">
        <ele>62</ele>
        <time>2020-03-07T16:06:46Z</time>
      </trkpt>
      <trkpt lat="47.51229" lon="-1.33985">
        <ele>62</ele>
        <time>2020-03-07T16:06:51Z</time>
      </trkpt>
      <trkpt lat="47.51241" lon="-1.33993">
        <ele>62</ele>
        <time>2020-03-07T16:06:55Z</time>
      </trkpt>
      <trkpt lat="47.51272" lon="-1.34022">
        <ele>63</ele>
        <time>2020-03-07T16:07:04Z</time>
      </trkpt>
      <trkpt lat="47.51302" lon="-1.34043">
        <ele>63</ele>
        <time>2020-03-07T16:07:12Z</time>
      </trkpt>
      <trkpt lat="47.51312" lon="-1.34046">
        <ele>64</ele>
        <time>2020-03-07T16:07:14Z</time>
      </trkpt>
      <trkpt lat="47.51317" lon="-1.34046">
        <ele>64</ele>
        <time>2020-03-07T16:07:15Z</time>
      </trkpt>
      <trkpt lat="47.51328" lon="-1.34047">
        <ele>64</ele>
        <time>2020-03-07T16:07:17Z</time>
      </trkpt>
      <trkpt lat="47.51371" lon="-1.34045">
        <ele>62</ele>
        <time>2020-03-07T16:07:24Z</time>
      </trkpt>
      <trkpt lat="47.51418" lon="-1.34043">
        <ele>61</ele>
        <time>2020-03-07T16:07:31Z</time>
      </trkpt>
      <trkpt lat="47.51425" lon="-1.34043">
        <ele>61</ele>
        <time>2020-03-07T16:07:32Z</time>
      </trkpt>
      <trkpt lat="47.51453" lon="-1.34038">
        <ele>60</ele>
        <time>2020-03-07T16:07:36Z</time>
      </trkpt>
      <trkpt lat="47.51482" lon="-1.34028">
        <ele>59</ele>
        <time>2020-03-07T16:07:40Z</time>
      </trkpt>
      <trkpt lat="47.51525" lon="-1.34007">
        <ele>58</ele>
        <time>2020-03-07T16:07:46Z</time>
      </trkpt>
      <trkpt lat="47.5154" lon="-1.33999">
        <ele>58</ele>
        <time>2020-03-07T16:07:48Z</time>
      </trkpt>
      <trkpt lat="47.51555" lon="-1.33991">
        <ele>57</ele>
        <time>2020-03-07T16:07:50Z</time>
      </trkpt>
      <trkpt lat="47.51594" lon="-1.33971">
        <ele>54</ele>
        <time>2020-03-07T16:07:55Z</time>
      </trkpt>
      <trkpt lat="47.51626" lon="-1.33954">
        <ele>53</ele>
        <time>2020-03-07T16:07:59Z</time>
      </trkpt>
      <trkpt lat="47.51657" lon="-1.33938">
        <ele>53</ele>
        <time>2020-03-07T16:08:03Z</time>
      </trkpt>
      <trkpt lat="47.51696" lon="-1.33924">
        <ele>52</ele>
        <time>2020-03-07T16:08:08Z</time>
      </trkpt>
      <trkpt lat="47.51704" lon="-1.33924">
        <ele>51</ele>
        <time>2020-03-07T16:08:09Z</time>
      </trkpt>
      <trkpt lat="47.51725" lon="-1.3393">
        <ele>51</ele>
        <time>2020-03-07T16:08:12Z</time>
      </trkpt>
      <trkpt lat="47.51732" lon="-1.33933">
        <ele>51</ele>
        <time>2020-03-07T16:08:13Z</time>
      </trkpt>
      <trkpt lat="47.51779" lon="-1.33956">
        <ele>51</ele>
        <time>2020-03-07T16:08:20Z</time>
      </trkpt>
      <trkpt lat="47.51785" lon="-1.33959">
        <ele>51</ele>
        <time>2020-03-07T16:08:21Z</time>
      </trkpt>
      <trkpt lat="47.51837" lon="-1.33981">
        <ele>51</ele>
        <time>2020-03-07T16:08:29Z</time>
      </trkpt>
      <trkpt lat="47.51884" lon="-1.33994">
        <ele>51</ele>
        <time>2020-03-07T16:08:37Z</time>
      </trkpt>
      <trkpt lat="47.51895" lon="-1.33996">
        <ele>50</ele>
        <time>2020-03-07T16:08:39Z</time>
      </trkpt>
      <trkpt lat="47.51947" lon="-1.33999">
        <ele>49</ele>
        <time>2020-03-07T16:08:48Z</time>
      </trkpt>
      <trkpt lat="47.51976" lon="-1.33999">
        <ele>48</ele>
        <time>2020-03-07T16:08:52Z</time>
      </trkpt>
      <trkpt lat="47.51999" lon="-1.34">
        <ele>47</ele>
        <time>2020-03-07T16:08:55Z</time>
      </trkpt>
      <trkpt lat="47.52024" lon="-1.34003">
        <ele>45</ele>
        <time>2020-03-07T16:08:58Z</time>
      </trkpt>
      <trkpt lat="47.52039" lon="-1.34009">
        <ele>44</ele>
        <time>2020-03-07T16:09:00Z</time>
      </trkpt>
      <trkpt lat="47.52047" lon="-1.34014">
        <ele>43</ele>
        <time>2020-03-07T16:09:01Z</time>
      </trkpt>
      <trkpt lat="47.5207" lon="-1.34029">
        <ele>43</ele>
        <time>2020-03-07T16:09:04Z</time>
      </trkpt>
      <trkpt lat="47.52078" lon="-1.34034">
        <ele>43</ele>
        <time>2020-03-07T16:09:05Z</time>
      </trkpt>
      <trkpt lat="47.52093" lon="-1.3404">
        <ele>43</ele>
        <time>2020-03-07T16:09:07Z</time>
      </trkpt>
      <trkpt lat="47.52101" lon="-1.3404">
        <ele>43</ele>
        <time>2020-03-07T16:09:08Z</time>
      </trkpt>
      <trkpt lat="47.52109" lon="-1.34038">
        <ele>43</ele>
        <time>2020-03-07T16:09:09Z</time>
      </trkpt>
      <trkpt lat="47.52131" lon="-1.34026">
        <ele>43</ele>
        <time>2020-03-07T16:09:12Z</time>
      </trkpt>
      <trkpt lat="47.52138" lon="-1.34021">
        <ele>43</ele>
        <time>2020-03-07T16:09:13Z</time>
      </trkpt>
      <trkpt lat="47.52171" lon="-1.33997">
        <ele>43</ele>
        <time>2020-03-07T16:09:18Z</time>
      </trkpt>
      <trkpt lat="47.52182" lon="-1.3399">
        <ele>43</ele>
        <time>2020-03-07T16:09:20Z</time>
      </trkpt>
      <trkpt lat="47.52198" lon="-1.3398">
        <ele>43</ele>
        <time>2020-03-07T16:09:24Z</time>
      </trkpt>
      <trkpt lat="47.52206" lon="-1.33982">
        <ele>43</ele>
        <time>2020-03-07T16:09:27Z</time>
      </trkpt>
      <trkpt lat="47.52208" lon="-1.33986">
        <ele>43</ele>
        <time>2020-03-07T16:09:28Z</time>
      </trkpt>
      <trkpt lat="47.52211" lon="-1.33996">
        <ele>42</ele>
        <time>2020-03-07T16:09:30Z</time>
      </trkpt>
      <trkpt lat="47.52213" lon="-1.34002">
        <ele>42</ele>
        <time>2020-03-07T16:09:31Z</time>
      </trkpt>
      <trkpt lat="47.52214" lon="-1.34009">
        <ele>41</ele>
        <time>2020-03-07T16:09:32Z</time>
      </trkpt>
      <trkpt lat="47.52226" lon="-1.34056">
        <ele>41</ele>
        <time>2020-03-07T16:09:38Z</time>
      </trkpt>
      <trkpt lat="47.52243" lon="-1.34122">
        <ele>40</ele>
        <time>2020-03-07T16:09:45Z</time>
      </trkpt>
      <trkpt lat="47.52257" lon="-1.34174">
        <ele>37</ele>
        <time>2020-03-07T16:09:50Z</time>
      </trkpt>
      <trkpt lat="47.52263" lon="-1.34195">
        <ele>36</ele>
        <time>2020-03-07T16:09:52Z</time>
      </trkpt>
      <trkpt lat="47.52275" lon="-1.34239">
        <ele>35</ele>
        <time>2020-03-07T16:09:56Z</time>
      </trkpt>
      <trkpt lat="47.52289" lon="-1.34296">
        <ele>35</ele>
        <time>2020-03-07T16:10:01Z</time>
      </trkpt>
      <trkpt lat="47.52292" lon="-1.34308">
        <ele>34</ele>
        <time>2020-03-07T16:10:02Z</time>
      </trkpt>
      <trkpt lat="47.52314" lon="-1.34389">
        <ele>36</ele>
        <time>2020-03-07T16:10:09Z</time>
      </trkpt>
      <trkpt lat="47.5232" lon="-1.34412">
        <ele>36</ele>
        <time>2020-03-07T16:10:11Z</time>
      </trkpt>
      <trkpt lat="47.52344" lon="-1.34492">
        <ele>34</ele>
        <time>2020-03-07T16:10:18Z</time>
      </trkpt>
      <trkpt lat="47.52349" lon="-1.34502">
        <ele>34</ele>
        <time>2020-03-07T16:10:19Z</time>
      </trkpt>
      <trkpt lat="47.52367" lon="-1.34529">
        <ele>34</ele>
        <time>2020-03-07T16:10:22Z</time>
      </trkpt>
      <trkpt lat="47.52403" lon="-1.34568">
        <ele>33</ele>
        <time>2020-03-07T16:10:27Z</time>
      </trkpt>
      <trkpt lat="47.52424" lon="-1.34586">
        <ele>32</ele>
        <time>2020-03-07T16:10:30Z</time>
      </trkpt>
      <trkpt lat="47.52449" lon="-1.3461">
        <ele>32</ele>
        <time>2020-03-07T16:10:34Z</time>
      </trkpt>
      <trkpt lat="47.52485" lon="-1.3465">
        <ele>32</ele>
        <time>2020-03-07T16:10:41Z</time>
      </trkpt>
      <trkpt lat="47.52519" lon="-1.34695">
        <ele>32</ele>
        <time>2020-03-07T16:10:49Z</time>
      </trkpt>
      <trkpt lat="47.52533" lon="-1.34719">
        <ele>33</ele>
        <time>2020-03-07T16:10:53Z</time>
      </trkpt>
      <trkpt lat="47.52537" lon="-1.34731">
        <ele>33</ele>
        <time>2020-03-07T16:10:55Z</time>
      </trkpt>
      <trkpt lat="47.52543" lon="-1.34761">
        <ele>34</ele>
        <time>2020-03-07T16:11:01Z</time>
      </trkpt>
    </trkseg>
  </trk>
</gpx>